<?xml version="1.0" encoding="UTF-8" standalone="no" ?>
<gpx xmlns="http://www.topografix.com/GPX/1/1" xmlns:xsi="http://www.w3.org/2001/XMLSchema-instance" xsi:schemaLocation="http://www.topografix.com/GPX/1/1 http://www.topografix.com/GPX/1/1/gpx.xsd" version="1.1" creator="VisuGPX - https://www.visugpx.com">
  <metadata>
    <name>Le rocher canon</name>
    <desc><![CDATA[circuit de trente km en foret de fontainebleau]]></desc>
  </metadata>
  <trk>
    <name><![CDATA[Tracé]]></name>
    <trkseg>
      <trkpt lat="48.46337" lon="2.6654">
        <ele>83</ele>
        <time>2008-08-24T09:51:59Z</time>
      </trkpt>
      <trkpt lat="48.46363" lon="2.66523">
        <ele>83</ele>
        <time>2008-08-24T09:52:10Z</time>
      </trkpt>
      <trkpt lat="48.46392" lon="2.66507">
        <ele>82.7</ele>
        <time>2008-08-24T09:52:20Z</time>
      </trkpt>
      <trkpt lat="48.46392" lon="2.66482">
        <ele>82.5</ele>
        <time>2008-08-24T09:52:30Z</time>
      </trkpt>
      <trkpt lat="48.46385" lon="2.66442">
        <ele>82.6</ele>
        <time>2008-08-24T09:52:40Z</time>
      </trkpt>
      <trkpt lat="48.46367" lon="2.66423">
        <ele>83.4</ele>
        <time>2008-08-24T09:52:51Z</time>
      </trkpt>
      <trkpt lat="48.46345" lon="2.66398">
        <ele>84.3</ele>
        <time>2008-08-24T09:53:01Z</time>
      </trkpt>
      <trkpt lat="48.4634" lon="2.6638">
        <ele>84.4</ele>
        <time>2008-08-24T09:53:11Z</time>
      </trkpt>
      <trkpt lat="48.46333" lon="2.66347">
        <ele>84.6</ele>
        <time>2008-08-24T09:53:22Z</time>
      </trkpt>
      <trkpt lat="48.46322" lon="2.66332">
        <ele>84.9</ele>
        <time>2008-08-24T09:53:32Z</time>
      </trkpt>
      <trkpt lat="48.46312" lon="2.66308">
        <ele>86.4</ele>
        <time>2008-08-24T09:53:42Z</time>
      </trkpt>
      <trkpt lat="48.46302" lon="2.66297">
        <ele>88.2</ele>
        <time>2008-08-24T09:53:52Z</time>
      </trkpt>
      <trkpt lat="48.463" lon="2.66295">
        <ele>88.4</ele>
        <time>2008-08-24T09:54:03Z</time>
      </trkpt>
      <trkpt lat="48.46298" lon="2.66275">
        <ele>89.2</ele>
        <time>2008-08-24T09:54:13Z</time>
      </trkpt>
      <trkpt lat="48.46288" lon="2.66255">
        <ele>90.5</ele>
        <time>2008-08-24T09:54:23Z</time>
      </trkpt>
      <trkpt lat="48.46283" lon="2.66233">
        <ele>91</ele>
        <time>2008-08-24T09:54:33Z</time>
      </trkpt>
      <trkpt lat="48.46282" lon="2.66213">
        <ele>91.2</ele>
        <time>2008-08-24T09:54:44Z</time>
      </trkpt>
      <trkpt lat="48.46272" lon="2.6621">
        <ele>91.9</ele>
        <time>2008-08-24T09:54:54Z</time>
      </trkpt>
      <trkpt lat="48.4627" lon="2.66188">
        <ele>91.9</ele>
        <time>2008-08-24T09:55:04Z</time>
      </trkpt>
      <trkpt lat="48.4627" lon="2.66173">
        <ele>91.7</ele>
        <time>2008-08-24T09:55:14Z</time>
      </trkpt>
      <trkpt lat="48.46288" lon="2.66158">
        <ele>90.1</ele>
        <time>2008-08-24T09:55:25Z</time>
      </trkpt>
      <trkpt lat="48.46292" lon="2.6614">
        <ele>89.4</ele>
        <time>2008-08-24T09:55:35Z</time>
      </trkpt>
      <trkpt lat="48.46288" lon="2.66118">
        <ele>89.1</ele>
        <time>2008-08-24T09:55:45Z</time>
      </trkpt>
      <trkpt lat="48.46287" lon="2.66113">
        <ele>89.1</ele>
        <time>2008-08-24T09:55:55Z</time>
      </trkpt>
      <trkpt lat="48.46287" lon="2.66113">
        <ele>89.1</ele>
        <time>2008-08-24T09:56:06Z</time>
      </trkpt>
      <trkpt lat="48.46272" lon="2.66117">
        <ele>90.5</ele>
        <time>2008-08-24T09:56:16Z</time>
      </trkpt>
      <trkpt lat="48.46255" lon="2.66132">
        <ele>91.1</ele>
        <time>2008-08-24T09:56:26Z</time>
      </trkpt>
      <trkpt lat="48.46232" lon="2.66123">
        <ele>90.9</ele>
        <time>2008-08-24T09:56:36Z</time>
      </trkpt>
      <trkpt lat="48.46198" lon="2.66088">
        <ele>89.8</ele>
        <time>2008-08-24T09:56:47Z</time>
      </trkpt>
      <trkpt lat="48.46185" lon="2.66048">
        <ele>88.9</ele>
        <time>2008-08-24T09:56:57Z</time>
      </trkpt>
      <trkpt lat="48.46215" lon="2.6603">
        <ele>88.4</ele>
        <time>2008-08-24T09:57:07Z</time>
      </trkpt>
      <trkpt lat="48.46235" lon="2.65973">
        <ele>85.5</ele>
        <time>2008-08-24T09:57:17Z</time>
      </trkpt>
      <trkpt lat="48.46245" lon="2.65903">
        <ele>84.8</ele>
        <time>2008-08-24T09:57:28Z</time>
      </trkpt>
      <trkpt lat="48.4625" lon="2.65843">
        <ele>85.2</ele>
        <time>2008-08-24T09:57:38Z</time>
      </trkpt>
      <trkpt lat="48.46262" lon="2.65775">
        <ele>85.7</ele>
        <time>2008-08-24T09:57:48Z</time>
      </trkpt>
      <trkpt lat="48.46265" lon="2.65712">
        <ele>85.5</ele>
        <time>2008-08-24T09:57:58Z</time>
      </trkpt>
      <trkpt lat="48.46265" lon="2.65643">
        <ele>85.6</ele>
        <time>2008-08-24T09:58:09Z</time>
      </trkpt>
      <trkpt lat="48.46263" lon="2.6559">
        <ele>86.5</ele>
        <time>2008-08-24T09:58:19Z</time>
      </trkpt>
      <trkpt lat="48.46272" lon="2.65528">
        <ele>86.9</ele>
        <time>2008-08-24T09:58:29Z</time>
      </trkpt>
      <trkpt lat="48.46292" lon="2.65477">
        <ele>87.6</ele>
        <time>2008-08-24T09:58:39Z</time>
      </trkpt>
      <trkpt lat="48.4632" lon="2.65415">
        <ele>87.9</ele>
        <time>2008-08-24T09:58:50Z</time>
      </trkpt>
      <trkpt lat="48.46333" lon="2.65377">
        <ele>87.7</ele>
        <time>2008-08-24T09:59:00Z</time>
      </trkpt>
      <trkpt lat="48.46345" lon="2.65348">
        <ele>87.4</ele>
        <time>2008-08-24T09:59:10Z</time>
      </trkpt>
      <trkpt lat="48.46368" lon="2.65278">
        <ele>86.7</ele>
        <time>2008-08-24T09:59:20Z</time>
      </trkpt>
      <trkpt lat="48.46367" lon="2.6521">
        <ele>86.2</ele>
        <time>2008-08-24T09:59:31Z</time>
      </trkpt>
      <trkpt lat="48.46343" lon="2.65182">
        <ele>87.4</ele>
        <time>2008-08-24T09:59:41Z</time>
      </trkpt>
      <trkpt lat="48.4632" lon="2.6516">
        <ele>88.9</ele>
        <time>2008-08-24T09:59:51Z</time>
      </trkpt>
      <trkpt lat="48.46307" lon="2.65147">
        <ele>92.2</ele>
        <time>2008-08-24T10:00:01Z</time>
      </trkpt>
      <trkpt lat="48.46298" lon="2.6514">
        <ele>94.1</ele>
        <time>2008-08-24T10:00:12Z</time>
      </trkpt>
      <trkpt lat="48.46278" lon="2.65122">
        <ele>97.7</ele>
        <time>2008-08-24T10:00:22Z</time>
      </trkpt>
      <trkpt lat="48.46245" lon="2.65095">
        <ele>100.1</ele>
        <time>2008-08-24T10:00:32Z</time>
      </trkpt>
      <trkpt lat="48.46205" lon="2.65092">
        <ele>100.9</ele>
        <time>2008-08-24T10:00:43Z</time>
      </trkpt>
      <trkpt lat="48.46162" lon="2.65082">
        <ele>98.9</ele>
        <time>2008-08-24T10:00:53Z</time>
      </trkpt>
      <trkpt lat="48.46137" lon="2.65082">
        <ele>97.5</ele>
        <time>2008-08-24T10:01:03Z</time>
      </trkpt>
      <trkpt lat="48.46133" lon="2.65105">
        <ele>98.3</ele>
        <time>2008-08-24T10:01:13Z</time>
      </trkpt>
      <trkpt lat="48.4612" lon="2.65123">
        <ele>98.1</ele>
        <time>2008-08-24T10:01:24Z</time>
      </trkpt>
      <trkpt lat="48.46102" lon="2.65142">
        <ele>97.1</ele>
        <time>2008-08-24T10:01:34Z</time>
      </trkpt>
      <trkpt lat="48.46087" lon="2.65163">
        <ele>96.8</ele>
        <time>2008-08-24T10:01:44Z</time>
      </trkpt>
      <trkpt lat="48.4607" lon="2.65175">
        <ele>97</ele>
        <time>2008-08-24T10:01:54Z</time>
      </trkpt>
      <trkpt lat="48.46043" lon="2.6519">
        <ele>97.3</ele>
        <time>2008-08-24T10:02:05Z</time>
      </trkpt>
      <trkpt lat="48.4603" lon="2.65212">
        <ele>98.2</ele>
        <time>2008-08-24T10:02:15Z</time>
      </trkpt>
      <trkpt lat="48.46018" lon="2.65233">
        <ele>99.4</ele>
        <time>2008-08-24T10:02:25Z</time>
      </trkpt>
      <trkpt lat="48.46005" lon="2.65265">
        <ele>101.7</ele>
        <time>2008-08-24T10:02:35Z</time>
      </trkpt>
      <trkpt lat="48.46002" lon="2.65283">
        <ele>103.2</ele>
        <time>2008-08-24T10:02:46Z</time>
      </trkpt>
      <trkpt lat="48.46002" lon="2.65302">
        <ele>104.1</ele>
        <time>2008-08-24T10:02:56Z</time>
      </trkpt>
      <trkpt lat="48.45993" lon="2.65308">
        <ele>107.6</ele>
        <time>2008-08-24T10:03:06Z</time>
      </trkpt>
      <trkpt lat="48.45993" lon="2.65308">
        <ele>107.6</ele>
        <time>2008-08-24T10:03:16Z</time>
      </trkpt>
      <trkpt lat="48.45993" lon="2.65308">
        <ele>107.6</ele>
        <time>2008-08-24T10:03:27Z</time>
      </trkpt>
      <trkpt lat="48.45978" lon="2.6532">
        <ele>114.1</ele>
        <time>2008-08-24T10:03:37Z</time>
      </trkpt>
      <trkpt lat="48.45978" lon="2.6532">
        <ele>114.1</ele>
        <time>2008-08-24T10:03:47Z</time>
      </trkpt>
      <trkpt lat="48.45978" lon="2.6532">
        <ele>114.1</ele>
        <time>2008-08-24T10:03:57Z</time>
      </trkpt>
      <trkpt lat="48.4598" lon="2.65363">
        <ele>114.5</ele>
        <time>2008-08-24T10:04:08Z</time>
      </trkpt>
      <trkpt lat="48.4598" lon="2.65363">
        <ele>114.5</ele>
        <time>2008-08-24T10:04:18Z</time>
      </trkpt>
      <trkpt lat="48.4598" lon="2.65363">
        <ele>114.5</ele>
        <time>2008-08-24T10:04:28Z</time>
      </trkpt>
      <trkpt lat="48.4597" lon="2.65412">
        <ele>117</ele>
        <time>2008-08-24T10:04:38Z</time>
      </trkpt>
      <trkpt lat="48.45963" lon="2.65462">
        <ele>115.1</ele>
        <time>2008-08-24T10:04:49Z</time>
      </trkpt>
      <trkpt lat="48.45953" lon="2.65508">
        <ele>112.6</ele>
        <time>2008-08-24T10:04:59Z</time>
      </trkpt>
      <trkpt lat="48.45937" lon="2.6556">
        <ele>113.8</ele>
        <time>2008-08-24T10:05:09Z</time>
      </trkpt>
      <trkpt lat="48.45928" lon="2.65602">
        <ele>112.4</ele>
        <time>2008-08-24T10:05:19Z</time>
      </trkpt>
      <trkpt lat="48.4591" lon="2.65655">
        <ele>110.5</ele>
        <time>2008-08-24T10:05:30Z</time>
      </trkpt>
      <trkpt lat="48.45897" lon="2.6568">
        <ele>112.1</ele>
        <time>2008-08-24T10:05:40Z</time>
      </trkpt>
      <trkpt lat="48.45878" lon="2.65713">
        <ele>114.8</ele>
        <time>2008-08-24T10:05:50Z</time>
      </trkpt>
      <trkpt lat="48.45865" lon="2.65752">
        <ele>111.8</ele>
        <time>2008-08-24T10:06:01Z</time>
      </trkpt>
      <trkpt lat="48.45862" lon="2.65772">
        <ele>108.5</ele>
        <time>2008-08-24T10:06:11Z</time>
      </trkpt>
      <trkpt lat="48.4583" lon="2.65815">
        <ele>110.4</ele>
        <time>2008-08-24T10:06:21Z</time>
      </trkpt>
      <trkpt lat="48.45807" lon="2.65797">
        <ele>114.5</ele>
        <time>2008-08-24T10:06:31Z</time>
      </trkpt>
      <trkpt lat="48.45785" lon="2.65798">
        <ele>114.1</ele>
        <time>2008-08-24T10:06:41Z</time>
      </trkpt>
      <trkpt lat="48.45752" lon="2.65793">
        <ele>115.3</ele>
        <time>2008-08-24T10:06:52Z</time>
      </trkpt>
      <trkpt lat="48.45712" lon="2.65813">
        <ele>114.1</ele>
        <time>2008-08-24T10:07:02Z</time>
      </trkpt>
      <trkpt lat="48.45687" lon="2.65857">
        <ele>113.2</ele>
        <time>2008-08-24T10:07:12Z</time>
      </trkpt>
      <trkpt lat="48.45693" lon="2.65935">
        <ele>110.4</ele>
        <time>2008-08-24T10:07:23Z</time>
      </trkpt>
      <trkpt lat="48.45683" lon="2.65985">
        <ele>108.5</ele>
        <time>2008-08-24T10:07:33Z</time>
      </trkpt>
      <trkpt lat="48.4566" lon="2.66027">
        <ele>114.4</ele>
        <time>2008-08-24T10:07:43Z</time>
      </trkpt>
      <trkpt lat="48.45653" lon="2.66088">
        <ele>116.5</ele>
        <time>2008-08-24T10:07:53Z</time>
      </trkpt>
      <trkpt lat="48.45663" lon="2.6617">
        <ele>117.4</ele>
        <time>2008-08-24T10:08:04Z</time>
      </trkpt>
      <trkpt lat="48.45682" lon="2.66238">
        <ele>118.1</ele>
        <time>2008-08-24T10:08:14Z</time>
      </trkpt>
      <trkpt lat="48.45698" lon="2.663">
        <ele>116.2</ele>
        <time>2008-08-24T10:08:24Z</time>
      </trkpt>
      <trkpt lat="48.45708" lon="2.66357">
        <ele>114</ele>
        <time>2008-08-24T10:08:34Z</time>
      </trkpt>
      <trkpt lat="48.45713" lon="2.66412">
        <ele>113.5</ele>
        <time>2008-08-24T10:08:45Z</time>
      </trkpt>
      <trkpt lat="48.45718" lon="2.66478">
        <ele>116</ele>
        <time>2008-08-24T10:08:55Z</time>
      </trkpt>
      <trkpt lat="48.45732" lon="2.6654">
        <ele>118.1</ele>
        <time>2008-08-24T10:09:05Z</time>
      </trkpt>
      <trkpt lat="48.45753" lon="2.66598">
        <ele>113.2</ele>
        <time>2008-08-24T10:09:15Z</time>
      </trkpt>
      <trkpt lat="48.4575" lon="2.66663">
        <ele>111.7</ele>
        <time>2008-08-24T10:09:25Z</time>
      </trkpt>
      <trkpt lat="48.45738" lon="2.66715">
        <ele>108.5</ele>
        <time>2008-08-24T10:09:36Z</time>
      </trkpt>
      <trkpt lat="48.45717" lon="2.66765">
        <ele>106.2</ele>
        <time>2008-08-24T10:09:46Z</time>
      </trkpt>
      <trkpt lat="48.45693" lon="2.66787">
        <ele>107.3</ele>
        <time>2008-08-24T10:09:56Z</time>
      </trkpt>
      <trkpt lat="48.45687" lon="2.66792">
        <ele>107.7</ele>
        <time>2008-08-24T10:10:06Z</time>
      </trkpt>
      <trkpt lat="48.45687" lon="2.66792">
        <ele>107.7</ele>
        <time>2008-08-24T10:10:17Z</time>
      </trkpt>
      <trkpt lat="48.45673" lon="2.66792">
        <ele>106.6</ele>
        <time>2008-08-24T10:10:27Z</time>
      </trkpt>
      <trkpt lat="48.4563" lon="2.6679">
        <ele>102.2</ele>
        <time>2008-08-24T10:10:37Z</time>
      </trkpt>
      <trkpt lat="48.45585" lon="2.66802">
        <ele>101</ele>
        <time>2008-08-24T10:10:47Z</time>
      </trkpt>
      <trkpt lat="48.45557" lon="2.66825">
        <ele>103.5</ele>
        <time>2008-08-24T10:10:58Z</time>
      </trkpt>
      <trkpt lat="48.4555" lon="2.66862">
        <ele>103.1</ele>
        <time>2008-08-24T10:11:08Z</time>
      </trkpt>
      <trkpt lat="48.45543" lon="2.66908">
        <ele>103.9</ele>
        <time>2008-08-24T10:11:18Z</time>
      </trkpt>
      <trkpt lat="48.4553" lon="2.66947">
        <ele>105.7</ele>
        <time>2008-08-24T10:11:28Z</time>
      </trkpt>
      <trkpt lat="48.455" lon="2.66965">
        <ele>109.4</ele>
        <time>2008-08-24T10:11:39Z</time>
      </trkpt>
      <trkpt lat="48.45478" lon="2.66972">
        <ele>109.5</ele>
        <time>2008-08-24T10:11:49Z</time>
      </trkpt>
      <trkpt lat="48.4544" lon="2.66968">
        <ele>110.6</ele>
        <time>2008-08-24T10:11:59Z</time>
      </trkpt>
      <trkpt lat="48.45387" lon="2.66953">
        <ele>111.6</ele>
        <time>2008-08-24T10:12:09Z</time>
      </trkpt>
      <trkpt lat="48.45368" lon="2.66965">
        <ele>112.7</ele>
        <time>2008-08-24T10:12:20Z</time>
      </trkpt>
      <trkpt lat="48.45357" lon="2.66983">
        <ele>115.3</ele>
        <time>2008-08-24T10:12:30Z</time>
      </trkpt>
      <trkpt lat="48.45352" lon="2.66995">
        <ele>116.3</ele>
        <time>2008-08-24T10:12:40Z</time>
      </trkpt>
      <trkpt lat="48.45338" lon="2.67017">
        <ele>120.1</ele>
        <time>2008-08-24T10:12:50Z</time>
      </trkpt>
      <trkpt lat="48.45337" lon="2.67017">
        <ele>120.3</ele>
        <time>2008-08-24T10:13:01Z</time>
      </trkpt>
      <trkpt lat="48.45317" lon="2.6704">
        <ele>125.3</ele>
        <time>2008-08-24T10:13:11Z</time>
      </trkpt>
      <trkpt lat="48.45315" lon="2.67053">
        <ele>126.7</ele>
        <time>2008-08-24T10:13:21Z</time>
      </trkpt>
      <trkpt lat="48.45312" lon="2.67063">
        <ele>127.8</ele>
        <time>2008-08-24T10:13:31Z</time>
      </trkpt>
      <trkpt lat="48.45312" lon="2.67063">
        <ele>127.8</ele>
        <time>2008-08-24T10:13:42Z</time>
      </trkpt>
      <trkpt lat="48.45313" lon="2.67113">
        <ele>130</ele>
        <time>2008-08-24T10:13:52Z</time>
      </trkpt>
      <trkpt lat="48.45313" lon="2.67135">
        <ele>131</ele>
        <time>2008-08-24T10:14:02Z</time>
      </trkpt>
      <trkpt lat="48.45313" lon="2.6715">
        <ele>130.5</ele>
        <time>2008-08-24T10:14:12Z</time>
      </trkpt>
      <trkpt lat="48.45297" lon="2.6716">
        <ele>130</ele>
        <time>2008-08-24T10:14:23Z</time>
      </trkpt>
      <trkpt lat="48.45283" lon="2.67155">
        <ele>130.1</ele>
        <time>2008-08-24T10:14:33Z</time>
      </trkpt>
      <trkpt lat="48.45275" lon="2.67155">
        <ele>130.2</ele>
        <time>2008-08-24T10:14:43Z</time>
      </trkpt>
      <trkpt lat="48.45262" lon="2.67183">
        <ele>129.8</ele>
        <time>2008-08-24T10:14:53Z</time>
      </trkpt>
      <trkpt lat="48.45242" lon="2.67198">
        <ele>130.6</ele>
        <time>2008-08-24T10:15:04Z</time>
      </trkpt>
      <trkpt lat="48.45217" lon="2.67215">
        <ele>130.5</ele>
        <time>2008-08-24T10:15:14Z</time>
      </trkpt>
      <trkpt lat="48.45193" lon="2.6724">
        <ele>129.1</ele>
        <time>2008-08-24T10:15:24Z</time>
      </trkpt>
      <trkpt lat="48.45158" lon="2.6725">
        <ele>125.7</ele>
        <time>2008-08-24T10:15:34Z</time>
      </trkpt>
      <trkpt lat="48.45137" lon="2.67283">
        <ele>122.2</ele>
        <time>2008-08-24T10:15:45Z</time>
      </trkpt>
      <trkpt lat="48.4511" lon="2.67312">
        <ele>124.4</ele>
        <time>2008-08-24T10:15:55Z</time>
      </trkpt>
      <trkpt lat="48.4508" lon="2.67355">
        <ele>124.9</ele>
        <time>2008-08-24T10:16:05Z</time>
      </trkpt>
      <trkpt lat="48.45068" lon="2.67398">
        <ele>125.3</ele>
        <time>2008-08-24T10:16:15Z</time>
      </trkpt>
      <trkpt lat="48.45068" lon="2.67425">
        <ele>126</ele>
        <time>2008-08-24T10:16:26Z</time>
      </trkpt>
      <trkpt lat="48.45077" lon="2.67462">
        <ele>125.9</ele>
        <time>2008-08-24T10:16:36Z</time>
      </trkpt>
      <trkpt lat="48.45092" lon="2.675">
        <ele>123.8</ele>
        <time>2008-08-24T10:16:46Z</time>
      </trkpt>
      <trkpt lat="48.45107" lon="2.67548">
        <ele>121.1</ele>
        <time>2008-08-24T10:16:56Z</time>
      </trkpt>
      <trkpt lat="48.45112" lon="2.67575">
        <ele>121</ele>
        <time>2008-08-24T10:17:07Z</time>
      </trkpt>
      <trkpt lat="48.45112" lon="2.67608">
        <ele>122.3</ele>
        <time>2008-08-24T10:17:17Z</time>
      </trkpt>
      <trkpt lat="48.45113" lon="2.67637">
        <ele>121.2</ele>
        <time>2008-08-24T10:17:27Z</time>
      </trkpt>
      <trkpt lat="48.45125" lon="2.67692">
        <ele>114.7</ele>
        <time>2008-08-24T10:17:37Z</time>
      </trkpt>
      <trkpt lat="48.45127" lon="2.67698">
        <ele>113.3</ele>
        <time>2008-08-24T10:17:48Z</time>
      </trkpt>
      <trkpt lat="48.45113" lon="2.67725">
        <ele>111.9</ele>
        <time>2008-08-24T10:17:58Z</time>
      </trkpt>
      <trkpt lat="48.45087" lon="2.67725">
        <ele>116.3</ele>
        <time>2008-08-24T10:18:08Z</time>
      </trkpt>
      <trkpt lat="48.45057" lon="2.677">
        <ele>124.2</ele>
        <time>2008-08-24T10:18:18Z</time>
      </trkpt>
      <trkpt lat="48.45025" lon="2.67663">
        <ele>126.9</ele>
        <time>2008-08-24T10:18:29Z</time>
      </trkpt>
      <trkpt lat="48.45" lon="2.67622">
        <ele>129.6</ele>
        <time>2008-08-24T10:18:39Z</time>
      </trkpt>
      <trkpt lat="48.44973" lon="2.676">
        <ele>128</ele>
        <time>2008-08-24T10:18:49Z</time>
      </trkpt>
      <trkpt lat="48.44942" lon="2.67607">
        <ele>124.9</ele>
        <time>2008-08-24T10:18:59Z</time>
      </trkpt>
      <trkpt lat="48.44907" lon="2.67617">
        <ele>123.8</ele>
        <time>2008-08-24T10:19:10Z</time>
      </trkpt>
      <trkpt lat="48.44887" lon="2.6763">
        <ele>124.6</ele>
        <time>2008-08-24T10:19:20Z</time>
      </trkpt>
      <trkpt lat="48.44868" lon="2.67655">
        <ele>124.9</ele>
        <time>2008-08-24T10:19:30Z</time>
      </trkpt>
      <trkpt lat="48.44853" lon="2.67697">
        <ele>122.8</ele>
        <time>2008-08-24T10:19:40Z</time>
      </trkpt>
      <trkpt lat="48.44838" lon="2.67737">
        <ele>119.5</ele>
        <time>2008-08-24T10:19:51Z</time>
      </trkpt>
      <trkpt lat="48.44807" lon="2.67738">
        <ele>119.7</ele>
        <time>2008-08-24T10:20:01Z</time>
      </trkpt>
      <trkpt lat="48.44773" lon="2.67695">
        <ele>124.5</ele>
        <time>2008-08-24T10:20:11Z</time>
      </trkpt>
      <trkpt lat="48.4473" lon="2.67655">
        <ele>123.3</ele>
        <time>2008-08-24T10:20:21Z</time>
      </trkpt>
      <trkpt lat="48.4472" lon="2.6764">
        <ele>123.3</ele>
        <time>2008-08-24T10:20:32Z</time>
      </trkpt>
      <trkpt lat="48.4473" lon="2.67655">
        <ele>123.3</ele>
        <time>2008-08-24T10:20:42Z</time>
      </trkpt>
      <trkpt lat="48.44725" lon="2.67708">
        <ele>117.7</ele>
        <time>2008-08-24T10:20:52Z</time>
      </trkpt>
      <trkpt lat="48.4472" lon="2.67743">
        <ele>114.1</ele>
        <time>2008-08-24T10:21:02Z</time>
      </trkpt>
      <trkpt lat="48.44697" lon="2.6777">
        <ele>110.4</ele>
        <time>2008-08-24T10:21:13Z</time>
      </trkpt>
      <trkpt lat="48.44672" lon="2.678">
        <ele>109.6</ele>
        <time>2008-08-24T10:21:23Z</time>
      </trkpt>
      <trkpt lat="48.44657" lon="2.67818">
        <ele>110.9</ele>
        <time>2008-08-24T10:21:33Z</time>
      </trkpt>
      <trkpt lat="48.44645" lon="2.6783">
        <ele>112.7</ele>
        <time>2008-08-24T10:21:43Z</time>
      </trkpt>
      <trkpt lat="48.44633" lon="2.67845">
        <ele>116</ele>
        <time>2008-08-24T10:21:54Z</time>
      </trkpt>
      <trkpt lat="48.44628" lon="2.67852">
        <ele>117.5</ele>
        <time>2008-08-24T10:22:04Z</time>
      </trkpt>
      <trkpt lat="48.44628" lon="2.67852">
        <ele>117.5</ele>
        <time>2008-08-24T10:22:14Z</time>
      </trkpt>
      <trkpt lat="48.44605" lon="2.67878">
        <ele>124.8</ele>
        <time>2008-08-24T10:22:24Z</time>
      </trkpt>
      <trkpt lat="48.44603" lon="2.6788">
        <ele>125.4</ele>
        <time>2008-08-24T10:22:35Z</time>
      </trkpt>
      <trkpt lat="48.44603" lon="2.6788">
        <ele>125.4</ele>
        <time>2008-08-24T10:22:45Z</time>
      </trkpt>
      <trkpt lat="48.4458" lon="2.67905">
        <ele>130.7</ele>
        <time>2008-08-24T10:22:55Z</time>
      </trkpt>
      <trkpt lat="48.4458" lon="2.67905">
        <ele>130.7</ele>
        <time>2008-08-24T10:23:05Z</time>
      </trkpt>
      <trkpt lat="48.4458" lon="2.67905">
        <ele>130.7</ele>
        <time>2008-08-24T10:23:16Z</time>
      </trkpt>
      <trkpt lat="48.44555" lon="2.67948">
        <ele>134.7</ele>
        <time>2008-08-24T10:23:26Z</time>
      </trkpt>
      <trkpt lat="48.44553" lon="2.67967">
        <ele>134</ele>
        <time>2008-08-24T10:23:36Z</time>
      </trkpt>
      <trkpt lat="48.44555" lon="2.67988">
        <ele>133.4</ele>
        <time>2008-08-24T10:23:46Z</time>
      </trkpt>
      <trkpt lat="48.4457" lon="2.68013">
        <ele>132.5</ele>
        <time>2008-08-24T10:23:56Z</time>
      </trkpt>
      <trkpt lat="48.44553" lon="2.68022">
        <ele>130.9</ele>
        <time>2008-08-24T10:24:07Z</time>
      </trkpt>
      <trkpt lat="48.4455" lon="2.68023">
        <ele>130.2</ele>
        <time>2008-08-24T10:24:17Z</time>
      </trkpt>
      <trkpt lat="48.4455" lon="2.68023">
        <ele>130.2</ele>
        <time>2008-08-24T10:24:27Z</time>
      </trkpt>
      <trkpt lat="48.4455" lon="2.68023">
        <ele>130.2</ele>
        <time>2008-08-24T10:24:38Z</time>
      </trkpt>
      <trkpt lat="48.4455" lon="2.68023">
        <ele>130.2</ele>
        <time>2008-08-24T10:24:48Z</time>
      </trkpt>
      <trkpt lat="48.4455" lon="2.68023">
        <ele>130.2</ele>
        <time>2008-08-24T10:24:58Z</time>
      </trkpt>
      <trkpt lat="48.4455" lon="2.68023">
        <ele>130.2</ele>
        <time>2008-08-24T10:25:08Z</time>
      </trkpt>
      <trkpt lat="48.4455" lon="2.68023">
        <ele>130.2</ele>
        <time>2008-08-24T10:25:19Z</time>
      </trkpt>
      <trkpt lat="48.4455" lon="2.68023">
        <ele>130.2</ele>
        <time>2008-08-24T10:25:29Z</time>
      </trkpt>
      <trkpt lat="48.44548" lon="2.68022">
        <ele>130.2</ele>
        <time>2008-08-24T10:25:39Z</time>
      </trkpt>
      <trkpt lat="48.44532" lon="2.68013">
        <ele>129.3</ele>
        <time>2008-08-24T10:25:49Z</time>
      </trkpt>
      <trkpt lat="48.44495" lon="2.68013">
        <ele>128.3</ele>
        <time>2008-08-24T10:26:00Z</time>
      </trkpt>
      <trkpt lat="48.44468" lon="2.68057">
        <ele>125.8</ele>
        <time>2008-08-24T10:26:10Z</time>
      </trkpt>
      <trkpt lat="48.44442" lon="2.68102">
        <ele>125.6</ele>
        <time>2008-08-24T10:26:20Z</time>
      </trkpt>
      <trkpt lat="48.44427" lon="2.68158">
        <ele>124.1</ele>
        <time>2008-08-24T10:26:30Z</time>
      </trkpt>
      <trkpt lat="48.44417" lon="2.68223">
        <ele>123.9</ele>
        <time>2008-08-24T10:26:40Z</time>
      </trkpt>
      <trkpt lat="48.44382" lon="2.68238">
        <ele>125.4</ele>
        <time>2008-08-24T10:26:51Z</time>
      </trkpt>
      <trkpt lat="48.44357" lon="2.68242">
        <ele>125</ele>
        <time>2008-08-24T10:27:01Z</time>
      </trkpt>
      <trkpt lat="48.44345" lon="2.68208">
        <ele>130.3</ele>
        <time>2008-08-24T10:27:11Z</time>
      </trkpt>
      <trkpt lat="48.44328" lon="2.6818">
        <ele>131</ele>
        <time>2008-08-24T10:27:21Z</time>
      </trkpt>
      <trkpt lat="48.4431" lon="2.68152">
        <ele>130.4</ele>
        <time>2008-08-24T10:27:32Z</time>
      </trkpt>
      <trkpt lat="48.44305" lon="2.68115">
        <ele>132.3</ele>
        <time>2008-08-24T10:27:42Z</time>
      </trkpt>
      <trkpt lat="48.44298" lon="2.68083">
        <ele>133.7</ele>
        <time>2008-08-24T10:27:52Z</time>
      </trkpt>
      <trkpt lat="48.44298" lon="2.68035">
        <ele>135.1</ele>
        <time>2008-08-24T10:28:03Z</time>
      </trkpt>
      <trkpt lat="48.44275" lon="2.68012">
        <ele>134.4</ele>
        <time>2008-08-24T10:28:13Z</time>
      </trkpt>
      <trkpt lat="48.44262" lon="2.67975">
        <ele>134.2</ele>
        <time>2008-08-24T10:28:23Z</time>
      </trkpt>
      <trkpt lat="48.4427" lon="2.67935">
        <ele>135.6</ele>
        <time>2008-08-24T10:28:33Z</time>
      </trkpt>
      <trkpt lat="48.44275" lon="2.67887">
        <ele>135.7</ele>
        <time>2008-08-24T10:28:44Z</time>
      </trkpt>
      <trkpt lat="48.44282" lon="2.6785">
        <ele>136.4</ele>
        <time>2008-08-24T10:28:54Z</time>
      </trkpt>
      <trkpt lat="48.44285" lon="2.67827">
        <ele>137.1</ele>
        <time>2008-08-24T10:29:04Z</time>
      </trkpt>
      <trkpt lat="48.44295" lon="2.6779">
        <ele>138</ele>
        <time>2008-08-24T10:29:14Z</time>
      </trkpt>
      <trkpt lat="48.44295" lon="2.67755">
        <ele>138</ele>
        <time>2008-08-24T10:29:24Z</time>
      </trkpt>
      <trkpt lat="48.44295" lon="2.67755">
        <ele>138</ele>
        <time>2008-08-24T10:29:35Z</time>
      </trkpt>
      <trkpt lat="48.44298" lon="2.67738">
        <ele>138</ele>
        <time>2008-08-24T10:29:45Z</time>
      </trkpt>
      <trkpt lat="48.44295" lon="2.67698">
        <ele>137</ele>
        <time>2008-08-24T10:29:55Z</time>
      </trkpt>
      <trkpt lat="48.44297" lon="2.67657">
        <ele>136.4</ele>
        <time>2008-08-24T10:30:05Z</time>
      </trkpt>
      <trkpt lat="48.44298" lon="2.67613">
        <ele>137</ele>
        <time>2008-08-24T10:30:16Z</time>
      </trkpt>
      <trkpt lat="48.44295" lon="2.67582">
        <ele>136.9</ele>
        <time>2008-08-24T10:30:26Z</time>
      </trkpt>
      <trkpt lat="48.44305" lon="2.67547">
        <ele>136.8</ele>
        <time>2008-08-24T10:30:36Z</time>
      </trkpt>
      <trkpt lat="48.44298" lon="2.67508">
        <ele>137.1</ele>
        <time>2008-08-24T10:30:46Z</time>
      </trkpt>
      <trkpt lat="48.44283" lon="2.67475">
        <ele>136.4</ele>
        <time>2008-08-24T10:30:57Z</time>
      </trkpt>
      <trkpt lat="48.44283" lon="2.67442">
        <ele>135.9</ele>
        <time>2008-08-24T10:31:07Z</time>
      </trkpt>
      <trkpt lat="48.44292" lon="2.67397">
        <ele>136.1</ele>
        <time>2008-08-24T10:31:17Z</time>
      </trkpt>
      <trkpt lat="48.443" lon="2.67367">
        <ele>136.1</ele>
        <time>2008-08-24T10:31:27Z</time>
      </trkpt>
      <trkpt lat="48.443" lon="2.6736">
        <ele>136</ele>
        <time>2008-08-24T10:31:38Z</time>
      </trkpt>
      <trkpt lat="48.44313" lon="2.67323">
        <ele>136.7</ele>
        <time>2008-08-24T10:31:48Z</time>
      </trkpt>
      <trkpt lat="48.44315" lon="2.67302">
        <ele>137.1</ele>
        <time>2008-08-24T10:31:58Z</time>
      </trkpt>
      <trkpt lat="48.443" lon="2.67288">
        <ele>136.6</ele>
        <time>2008-08-24T10:32:08Z</time>
      </trkpt>
      <trkpt lat="48.44278" lon="2.67252">
        <ele>137.1</ele>
        <time>2008-08-24T10:32:19Z</time>
      </trkpt>
      <trkpt lat="48.44258" lon="2.67197">
        <ele>137.3</ele>
        <time>2008-08-24T10:32:29Z</time>
      </trkpt>
      <trkpt lat="48.4427" lon="2.6715">
        <ele>136.9</ele>
        <time>2008-08-24T10:32:39Z</time>
      </trkpt>
      <trkpt lat="48.44295" lon="2.67098">
        <ele>137.3</ele>
        <time>2008-08-24T10:32:49Z</time>
      </trkpt>
      <trkpt lat="48.44325" lon="2.6706">
        <ele>137.2</ele>
        <time>2008-08-24T10:33:00Z</time>
      </trkpt>
      <trkpt lat="48.44362" lon="2.6704">
        <ele>136.4</ele>
        <time>2008-08-24T10:33:10Z</time>
      </trkpt>
      <trkpt lat="48.44342" lon="2.67007">
        <ele>136.9</ele>
        <time>2008-08-24T10:33:20Z</time>
      </trkpt>
      <trkpt lat="48.4431" lon="2.6703">
        <ele>137.3</ele>
        <time>2008-08-24T10:33:31Z</time>
      </trkpt>
      <trkpt lat="48.4429" lon="2.67057">
        <ele>137.9</ele>
        <time>2008-08-24T10:33:41Z</time>
      </trkpt>
      <trkpt lat="48.44268" lon="2.67045">
        <ele>137.5</ele>
        <time>2008-08-24T10:33:51Z</time>
      </trkpt>
      <trkpt lat="48.44252" lon="2.67017">
        <ele>137.6</ele>
        <time>2008-08-24T10:34:01Z</time>
      </trkpt>
      <trkpt lat="48.44223" lon="2.67">
        <ele>137.9</ele>
        <time>2008-08-24T10:34:12Z</time>
      </trkpt>
      <trkpt lat="48.44217" lon="2.67018">
        <ele>137.9</ele>
        <time>2008-08-24T10:34:22Z</time>
      </trkpt>
      <trkpt lat="48.44218" lon="2.67042">
        <ele>137.7</ele>
        <time>2008-08-24T10:34:32Z</time>
      </trkpt>
      <trkpt lat="48.44227" lon="2.67052">
        <ele>137.5</ele>
        <time>2008-08-24T10:34:42Z</time>
      </trkpt>
      <trkpt lat="48.44212" lon="2.67047">
        <ele>137.8</ele>
        <time>2008-08-24T10:34:53Z</time>
      </trkpt>
      <trkpt lat="48.44205" lon="2.67025">
        <ele>138</ele>
        <time>2008-08-24T10:35:03Z</time>
      </trkpt>
      <trkpt lat="48.44203" lon="2.6702">
        <ele>138</ele>
        <time>2008-08-24T10:35:13Z</time>
      </trkpt>
      <trkpt lat="48.44197" lon="2.66978">
        <ele>137.7</ele>
        <time>2008-08-24T10:35:23Z</time>
      </trkpt>
      <trkpt lat="48.44187" lon="2.66943">
        <ele>136.7</ele>
        <time>2008-08-24T10:35:34Z</time>
      </trkpt>
      <trkpt lat="48.44177" lon="2.66917">
        <ele>136</ele>
        <time>2008-08-24T10:35:44Z</time>
      </trkpt>
      <trkpt lat="48.44177" lon="2.66917">
        <ele>136</ele>
        <time>2008-08-24T10:35:54Z</time>
      </trkpt>
      <trkpt lat="48.44168" lon="2.669">
        <ele>135.8</ele>
        <time>2008-08-24T10:36:04Z</time>
      </trkpt>
      <trkpt lat="48.44148" lon="2.66897">
        <ele>135</ele>
        <time>2008-08-24T10:36:14Z</time>
      </trkpt>
      <trkpt lat="48.44132" lon="2.66882">
        <ele>134.7</ele>
        <time>2008-08-24T10:36:25Z</time>
      </trkpt>
      <trkpt lat="48.44117" lon="2.66868">
        <ele>134.6</ele>
        <time>2008-08-24T10:36:35Z</time>
      </trkpt>
      <trkpt lat="48.44082" lon="2.66852">
        <ele>135.7</ele>
        <time>2008-08-24T10:36:45Z</time>
      </trkpt>
      <trkpt lat="48.44038" lon="2.66828">
        <ele>135.6</ele>
        <time>2008-08-24T10:36:56Z</time>
      </trkpt>
      <trkpt lat="48.43993" lon="2.66805">
        <ele>135.8</ele>
        <time>2008-08-24T10:37:06Z</time>
      </trkpt>
      <trkpt lat="48.43953" lon="2.66788">
        <ele>135</ele>
        <time>2008-08-24T10:37:16Z</time>
      </trkpt>
      <trkpt lat="48.43902" lon="2.66792">
        <ele>132.5</ele>
        <time>2008-08-24T10:37:26Z</time>
      </trkpt>
      <trkpt lat="48.43843" lon="2.66773">
        <ele>131.7</ele>
        <time>2008-08-24T10:37:36Z</time>
      </trkpt>
      <trkpt lat="48.43798" lon="2.66745">
        <ele>132.9</ele>
        <time>2008-08-24T10:37:47Z</time>
      </trkpt>
      <trkpt lat="48.43752" lon="2.66727">
        <ele>133.7</ele>
        <time>2008-08-24T10:37:57Z</time>
      </trkpt>
      <trkpt lat="48.43707" lon="2.66713">
        <ele>134.1</ele>
        <time>2008-08-24T10:38:07Z</time>
      </trkpt>
      <trkpt lat="48.43648" lon="2.6672">
        <ele>130.3</ele>
        <time>2008-08-24T10:38:18Z</time>
      </trkpt>
      <trkpt lat="48.43603" lon="2.66703">
        <ele>127.4</ele>
        <time>2008-08-24T10:38:28Z</time>
      </trkpt>
      <trkpt lat="48.4357" lon="2.66677">
        <ele>129.2</ele>
        <time>2008-08-24T10:38:38Z</time>
      </trkpt>
      <trkpt lat="48.4353" lon="2.66645">
        <ele>130.7</ele>
        <time>2008-08-24T10:38:48Z</time>
      </trkpt>
      <trkpt lat="48.43492" lon="2.66638">
        <ele>132.2</ele>
        <time>2008-08-24T10:38:59Z</time>
      </trkpt>
      <trkpt lat="48.43453" lon="2.66632">
        <ele>135.5</ele>
        <time>2008-08-24T10:39:09Z</time>
      </trkpt>
      <trkpt lat="48.43415" lon="2.66622">
        <ele>137.5</ele>
        <time>2008-08-24T10:39:19Z</time>
      </trkpt>
      <trkpt lat="48.43373" lon="2.6661">
        <ele>137.8</ele>
        <time>2008-08-24T10:39:29Z</time>
      </trkpt>
      <trkpt lat="48.43325" lon="2.66603">
        <ele>137.5</ele>
        <time>2008-08-24T10:39:40Z</time>
      </trkpt>
      <trkpt lat="48.43285" lon="2.66587">
        <ele>137.4</ele>
        <time>2008-08-24T10:39:50Z</time>
      </trkpt>
      <trkpt lat="48.4324" lon="2.66582">
        <ele>137</ele>
        <time>2008-08-24T10:40:00Z</time>
      </trkpt>
      <trkpt lat="48.43197" lon="2.66572">
        <ele>136.6</ele>
        <time>2008-08-24T10:40:10Z</time>
      </trkpt>
      <trkpt lat="48.43147" lon="2.66565">
        <ele>135.8</ele>
        <time>2008-08-24T10:40:21Z</time>
      </trkpt>
      <trkpt lat="48.43105" lon="2.66562">
        <ele>136.1</ele>
        <time>2008-08-24T10:40:31Z</time>
      </trkpt>
      <trkpt lat="48.43072" lon="2.66583">
        <ele>135.3</ele>
        <time>2008-08-24T10:40:41Z</time>
      </trkpt>
      <trkpt lat="48.4306" lon="2.66598">
        <ele>132.6</ele>
        <time>2008-08-24T10:40:51Z</time>
      </trkpt>
      <trkpt lat="48.4306" lon="2.66598">
        <ele>132.6</ele>
        <time>2008-08-24T10:41:01Z</time>
      </trkpt>
      <trkpt lat="48.4306" lon="2.66598">
        <ele>132.6</ele>
        <time>2008-08-24T10:41:12Z</time>
      </trkpt>
      <trkpt lat="48.43073" lon="2.66615">
        <ele>129.8</ele>
        <time>2008-08-24T10:41:22Z</time>
      </trkpt>
      <trkpt lat="48.43073" lon="2.66615">
        <ele>129.8</ele>
        <time>2008-08-24T10:41:32Z</time>
      </trkpt>
      <trkpt lat="48.43073" lon="2.66615">
        <ele>129.8</ele>
        <time>2008-08-24T10:41:42Z</time>
      </trkpt>
      <trkpt lat="48.43073" lon="2.66615">
        <ele>129.8</ele>
        <time>2008-08-24T10:41:53Z</time>
      </trkpt>
      <trkpt lat="48.43073" lon="2.66615">
        <ele>129.8</ele>
        <time>2008-08-24T10:42:03Z</time>
      </trkpt>
      <trkpt lat="48.43073" lon="2.66615">
        <ele>129.8</ele>
        <time>2008-08-24T10:42:13Z</time>
      </trkpt>
      <trkpt lat="48.43073" lon="2.66615">
        <ele>129.8</ele>
        <time>2008-08-24T10:42:23Z</time>
      </trkpt>
      <trkpt lat="48.43073" lon="2.66615">
        <ele>129.8</ele>
        <time>2008-08-24T10:42:34Z</time>
      </trkpt>
      <trkpt lat="48.43058" lon="2.66622">
        <ele>128.9</ele>
        <time>2008-08-24T10:42:44Z</time>
      </trkpt>
      <trkpt lat="48.43033" lon="2.66647">
        <ele>126</ele>
        <time>2008-08-24T10:42:54Z</time>
      </trkpt>
      <trkpt lat="48.43" lon="2.66685">
        <ele>129.8</ele>
        <time>2008-08-24T10:43:04Z</time>
      </trkpt>
      <trkpt lat="48.42995" lon="2.6673">
        <ele>128.6</ele>
        <time>2008-08-24T10:43:15Z</time>
      </trkpt>
      <trkpt lat="48.43" lon="2.6676">
        <ele>123.9</ele>
        <time>2008-08-24T10:43:25Z</time>
      </trkpt>
      <trkpt lat="48.4299" lon="2.66797">
        <ele>121.1</ele>
        <time>2008-08-24T10:43:35Z</time>
      </trkpt>
      <trkpt lat="48.42992" lon="2.66802">
        <ele>119.9</ele>
        <time>2008-08-24T10:43:45Z</time>
      </trkpt>
      <trkpt lat="48.42992" lon="2.66802">
        <ele>119.9</ele>
        <time>2008-08-24T10:43:56Z</time>
      </trkpt>
      <trkpt lat="48.42992" lon="2.66802">
        <ele>119.9</ele>
        <time>2008-08-24T10:44:06Z</time>
      </trkpt>
      <trkpt lat="48.42992" lon="2.66802">
        <ele>119.9</ele>
        <time>2008-08-24T10:44:16Z</time>
      </trkpt>
      <trkpt lat="48.42992" lon="2.66802">
        <ele>119.9</ele>
        <time>2008-08-24T10:44:26Z</time>
      </trkpt>
      <trkpt lat="48.42992" lon="2.66802">
        <ele>119.9</ele>
        <time>2008-08-24T10:44:37Z</time>
      </trkpt>
      <trkpt lat="48.42978" lon="2.66793">
        <ele>122.9</ele>
        <time>2008-08-24T10:44:47Z</time>
      </trkpt>
      <trkpt lat="48.42955" lon="2.66793">
        <ele>124.9</ele>
        <time>2008-08-24T10:44:57Z</time>
      </trkpt>
      <trkpt lat="48.42928" lon="2.66773">
        <ele>129.5</ele>
        <time>2008-08-24T10:45:07Z</time>
      </trkpt>
      <trkpt lat="48.42908" lon="2.66752">
        <ele>131.6</ele>
        <time>2008-08-24T10:45:18Z</time>
      </trkpt>
      <trkpt lat="48.42887" lon="2.66698">
        <ele>133.2</ele>
        <time>2008-08-24T10:45:28Z</time>
      </trkpt>
      <trkpt lat="48.42863" lon="2.6666">
        <ele>133.2</ele>
        <time>2008-08-24T10:45:38Z</time>
      </trkpt>
      <trkpt lat="48.42833" lon="2.66657">
        <ele>133</ele>
        <time>2008-08-24T10:45:48Z</time>
      </trkpt>
      <trkpt lat="48.42818" lon="2.6667">
        <ele>132.3</ele>
        <time>2008-08-24T10:45:59Z</time>
      </trkpt>
      <trkpt lat="48.42838" lon="2.6673">
        <ele>130.1</ele>
        <time>2008-08-24T10:46:09Z</time>
      </trkpt>
      <trkpt lat="48.42847" lon="2.66793">
        <ele>126.4</ele>
        <time>2008-08-24T10:46:19Z</time>
      </trkpt>
      <trkpt lat="48.42853" lon="2.66852">
        <ele>120.8</ele>
        <time>2008-08-24T10:46:29Z</time>
      </trkpt>
      <trkpt lat="48.42863" lon="2.66913">
        <ele>115.5</ele>
        <time>2008-08-24T10:46:40Z</time>
      </trkpt>
      <trkpt lat="48.42865" lon="2.66968">
        <ele>110</ele>
        <time>2008-08-24T10:46:50Z</time>
      </trkpt>
      <trkpt lat="48.42887" lon="2.67038">
        <ele>103.9</ele>
        <time>2008-08-24T10:47:00Z</time>
      </trkpt>
      <trkpt lat="48.42928" lon="2.67087">
        <ele>99.2</ele>
        <time>2008-08-24T10:47:10Z</time>
      </trkpt>
      <trkpt lat="48.42967" lon="2.67148">
        <ele>94</ele>
        <time>2008-08-24T10:47:21Z</time>
      </trkpt>
      <trkpt lat="48.43007" lon="2.6718">
        <ele>91.6</ele>
        <time>2008-08-24T10:47:31Z</time>
      </trkpt>
      <trkpt lat="48.4301" lon="2.67188">
        <ele>91.5</ele>
        <time>2008-08-24T10:47:41Z</time>
      </trkpt>
      <trkpt lat="48.43025" lon="2.67207">
        <ele>90.9</ele>
        <time>2008-08-24T10:47:51Z</time>
      </trkpt>
      <trkpt lat="48.4306" lon="2.6725">
        <ele>90.1</ele>
        <time>2008-08-24T10:48:02Z</time>
      </trkpt>
      <trkpt lat="48.43088" lon="2.67297">
        <ele>89.8</ele>
        <time>2008-08-24T10:48:12Z</time>
      </trkpt>
      <trkpt lat="48.43117" lon="2.6735">
        <ele>89.2</ele>
        <time>2008-08-24T10:48:22Z</time>
      </trkpt>
      <trkpt lat="48.4314" lon="2.67402">
        <ele>88.9</ele>
        <time>2008-08-24T10:48:32Z</time>
      </trkpt>
      <trkpt lat="48.43163" lon="2.67458">
        <ele>88.2</ele>
        <time>2008-08-24T10:48:43Z</time>
      </trkpt>
      <trkpt lat="48.43183" lon="2.67513">
        <ele>89</ele>
        <time>2008-08-24T10:48:53Z</time>
      </trkpt>
      <trkpt lat="48.432" lon="2.6755">
        <ele>88.1</ele>
        <time>2008-08-24T10:49:03Z</time>
      </trkpt>
      <trkpt lat="48.432" lon="2.67543">
        <ele>88.2</ele>
        <time>2008-08-24T10:49:13Z</time>
      </trkpt>
      <trkpt lat="48.43205" lon="2.67532">
        <ele>88.2</ele>
        <time>2008-08-24T10:49:24Z</time>
      </trkpt>
      <trkpt lat="48.43202" lon="2.6754">
        <ele>88.2</ele>
        <time>2008-08-24T10:49:34Z</time>
      </trkpt>
      <trkpt lat="48.43202" lon="2.6754">
        <ele>88.2</ele>
        <time>2008-08-24T10:49:44Z</time>
      </trkpt>
      <trkpt lat="48.43202" lon="2.6754">
        <ele>88.2</ele>
        <time>2008-08-24T10:49:54Z</time>
      </trkpt>
      <trkpt lat="48.43202" lon="2.6754">
        <ele>88.2</ele>
        <time>2008-08-24T10:50:05Z</time>
      </trkpt>
      <trkpt lat="48.43198" lon="2.6759">
        <ele>87.6</ele>
        <time>2008-08-24T10:50:15Z</time>
      </trkpt>
      <trkpt lat="48.43192" lon="2.67638">
        <ele>87.5</ele>
        <time>2008-08-24T10:50:25Z</time>
      </trkpt>
      <trkpt lat="48.43183" lon="2.67693">
        <ele>87.6</ele>
        <time>2008-08-24T10:50:35Z</time>
      </trkpt>
      <trkpt lat="48.43183" lon="2.67768">
        <ele>87.6</ele>
        <time>2008-08-24T10:50:46Z</time>
      </trkpt>
      <trkpt lat="48.43173" lon="2.67837">
        <ele>87.8</ele>
        <time>2008-08-24T10:50:56Z</time>
      </trkpt>
      <trkpt lat="48.43158" lon="2.6789">
        <ele>87.9</ele>
        <time>2008-08-24T10:51:06Z</time>
      </trkpt>
      <trkpt lat="48.43135" lon="2.67935">
        <ele>88.5</ele>
        <time>2008-08-24T10:51:16Z</time>
      </trkpt>
      <trkpt lat="48.43163" lon="2.67965">
        <ele>88</ele>
        <time>2008-08-24T10:51:27Z</time>
      </trkpt>
      <trkpt lat="48.43198" lon="2.68007">
        <ele>87.6</ele>
        <time>2008-08-24T10:51:37Z</time>
      </trkpt>
      <trkpt lat="48.43232" lon="2.68072">
        <ele>87</ele>
        <time>2008-08-24T10:51:47Z</time>
      </trkpt>
      <trkpt lat="48.43258" lon="2.68128">
        <ele>85.9</ele>
        <time>2008-08-24T10:51:57Z</time>
      </trkpt>
      <trkpt lat="48.43272" lon="2.68197">
        <ele>85.6</ele>
        <time>2008-08-24T10:52:08Z</time>
      </trkpt>
      <trkpt lat="48.43255" lon="2.6826">
        <ele>86</ele>
        <time>2008-08-24T10:52:18Z</time>
      </trkpt>
      <trkpt lat="48.43238" lon="2.6832">
        <ele>86.4</ele>
        <time>2008-08-24T10:52:28Z</time>
      </trkpt>
      <trkpt lat="48.43223" lon="2.68372">
        <ele>86.8</ele>
        <time>2008-08-24T10:52:38Z</time>
      </trkpt>
      <trkpt lat="48.43193" lon="2.68412">
        <ele>87.6</ele>
        <time>2008-08-24T10:52:49Z</time>
      </trkpt>
      <trkpt lat="48.43178" lon="2.68438">
        <ele>88</ele>
        <time>2008-08-24T10:52:59Z</time>
      </trkpt>
      <trkpt lat="48.43172" lon="2.6847">
        <ele>87.8</ele>
        <time>2008-08-24T10:53:09Z</time>
      </trkpt>
      <trkpt lat="48.43158" lon="2.68515">
        <ele>89.2</ele>
        <time>2008-08-24T10:53:19Z</time>
      </trkpt>
      <trkpt lat="48.4314" lon="2.68555">
        <ele>91</ele>
        <time>2008-08-24T10:53:29Z</time>
      </trkpt>
      <trkpt lat="48.43125" lon="2.68587">
        <ele>91.9</ele>
        <time>2008-08-24T10:53:40Z</time>
      </trkpt>
      <trkpt lat="48.43112" lon="2.6861">
        <ele>92.3</ele>
        <time>2008-08-24T10:53:50Z</time>
      </trkpt>
      <trkpt lat="48.43092" lon="2.68658">
        <ele>91.7</ele>
        <time>2008-08-24T10:54:00Z</time>
      </trkpt>
      <trkpt lat="48.43067" lon="2.68665">
        <ele>92.7</ele>
        <time>2008-08-24T10:54:10Z</time>
      </trkpt>
      <trkpt lat="48.43048" lon="2.68667">
        <ele>93.8</ele>
        <time>2008-08-24T10:54:21Z</time>
      </trkpt>
      <trkpt lat="48.43025" lon="2.68668">
        <ele>95.5</ele>
        <time>2008-08-24T10:54:31Z</time>
      </trkpt>
      <trkpt lat="48.43007" lon="2.6867">
        <ele>98.6</ele>
        <time>2008-08-24T10:54:41Z</time>
      </trkpt>
      <trkpt lat="48.42988" lon="2.68673">
        <ele>101.9</ele>
        <time>2008-08-24T10:54:51Z</time>
      </trkpt>
      <trkpt lat="48.42968" lon="2.68675">
        <ele>103.9</ele>
        <time>2008-08-24T10:55:02Z</time>
      </trkpt>
      <trkpt lat="48.42955" lon="2.68675">
        <ele>104.8</ele>
        <time>2008-08-24T10:55:12Z</time>
      </trkpt>
      <trkpt lat="48.4294" lon="2.68677">
        <ele>105.9</ele>
        <time>2008-08-24T10:55:22Z</time>
      </trkpt>
      <trkpt lat="48.42923" lon="2.68682">
        <ele>107.5</ele>
        <time>2008-08-24T10:55:32Z</time>
      </trkpt>
      <trkpt lat="48.42917" lon="2.68683">
        <ele>108.2</ele>
        <time>2008-08-24T10:55:42Z</time>
      </trkpt>
      <trkpt lat="48.429" lon="2.68683">
        <ele>109.9</ele>
        <time>2008-08-24T10:55:53Z</time>
      </trkpt>
      <trkpt lat="48.42897" lon="2.6868">
        <ele>110</ele>
        <time>2008-08-24T10:56:03Z</time>
      </trkpt>
      <trkpt lat="48.42882" lon="2.6867">
        <ele>111.9</ele>
        <time>2008-08-24T10:56:13Z</time>
      </trkpt>
      <trkpt lat="48.42882" lon="2.6867">
        <ele>111.9</ele>
        <time>2008-08-24T10:56:23Z</time>
      </trkpt>
      <trkpt lat="48.42858" lon="2.68645">
        <ele>117.1</ele>
        <time>2008-08-24T10:56:34Z</time>
      </trkpt>
      <trkpt lat="48.42858" lon="2.68643">
        <ele>117.3</ele>
        <time>2008-08-24T10:56:44Z</time>
      </trkpt>
      <trkpt lat="48.42858" lon="2.68643">
        <ele>117.3</ele>
        <time>2008-08-24T10:56:54Z</time>
      </trkpt>
      <trkpt lat="48.42858" lon="2.68643">
        <ele>117.3</ele>
        <time>2008-08-24T10:57:04Z</time>
      </trkpt>
      <trkpt lat="48.4283" lon="2.68642">
        <ele>122.5</ele>
        <time>2008-08-24T10:57:15Z</time>
      </trkpt>
      <trkpt lat="48.4283" lon="2.68642">
        <ele>122.5</ele>
        <time>2008-08-24T10:57:25Z</time>
      </trkpt>
      <trkpt lat="48.4283" lon="2.68642">
        <ele>122.5</ele>
        <time>2008-08-24T10:57:35Z</time>
      </trkpt>
      <trkpt lat="48.42793" lon="2.68637">
        <ele>130.3</ele>
        <time>2008-08-24T10:57:45Z</time>
      </trkpt>
      <trkpt lat="48.42778" lon="2.68632">
        <ele>133.3</ele>
        <time>2008-08-24T10:57:56Z</time>
      </trkpt>
      <trkpt lat="48.42762" lon="2.6863">
        <ele>136.3</ele>
        <time>2008-08-24T10:58:06Z</time>
      </trkpt>
      <trkpt lat="48.4274" lon="2.68625">
        <ele>137.8</ele>
        <time>2008-08-24T10:58:16Z</time>
      </trkpt>
      <trkpt lat="48.42713" lon="2.68615">
        <ele>139</ele>
        <time>2008-08-24T10:58:26Z</time>
      </trkpt>
      <trkpt lat="48.4269" lon="2.68607">
        <ele>139.5</ele>
        <time>2008-08-24T10:58:37Z</time>
      </trkpt>
      <trkpt lat="48.42657" lon="2.68595">
        <ele>139.8</ele>
        <time>2008-08-24T10:58:47Z</time>
      </trkpt>
      <trkpt lat="48.4262" lon="2.68578">
        <ele>139.3</ele>
        <time>2008-08-24T10:58:57Z</time>
      </trkpt>
      <trkpt lat="48.42578" lon="2.68565">
        <ele>139.4</ele>
        <time>2008-08-24T10:59:07Z</time>
      </trkpt>
      <trkpt lat="48.42565" lon="2.68612">
        <ele>139.7</ele>
        <time>2008-08-24T10:59:18Z</time>
      </trkpt>
      <trkpt lat="48.4256" lon="2.6868">
        <ele>139.7</ele>
        <time>2008-08-24T10:59:28Z</time>
      </trkpt>
      <trkpt lat="48.4256" lon="2.68745">
        <ele>140</ele>
        <time>2008-08-24T10:59:38Z</time>
      </trkpt>
      <trkpt lat="48.42557" lon="2.68807">
        <ele>140</ele>
        <time>2008-08-24T10:59:48Z</time>
      </trkpt>
      <trkpt lat="48.42555" lon="2.68873">
        <ele>140</ele>
        <time>2008-08-24T10:59:58Z</time>
      </trkpt>
      <trkpt lat="48.42555" lon="2.68938">
        <ele>140</ele>
        <time>2008-08-24T11:00:09Z</time>
      </trkpt>
      <trkpt lat="48.4255" lon="2.69003">
        <ele>140</ele>
        <time>2008-08-24T11:00:19Z</time>
      </trkpt>
      <trkpt lat="48.42545" lon="2.69057">
        <ele>140</ele>
        <time>2008-08-24T11:00:29Z</time>
      </trkpt>
      <trkpt lat="48.4254" lon="2.69102">
        <ele>140</ele>
        <time>2008-08-24T11:00:39Z</time>
      </trkpt>
      <trkpt lat="48.42537" lon="2.69162">
        <ele>140</ele>
        <time>2008-08-24T11:00:50Z</time>
      </trkpt>
      <trkpt lat="48.42533" lon="2.69225">
        <ele>140</ele>
        <time>2008-08-24T11:01:00Z</time>
      </trkpt>
      <trkpt lat="48.42533" lon="2.69258">
        <ele>140</ele>
        <time>2008-08-24T11:01:10Z</time>
      </trkpt>
      <trkpt lat="48.42535" lon="2.69293">
        <ele>140</ele>
        <time>2008-08-24T11:01:20Z</time>
      </trkpt>
      <trkpt lat="48.42532" lon="2.69337">
        <ele>140</ele>
        <time>2008-08-24T11:01:31Z</time>
      </trkpt>
      <trkpt lat="48.42532" lon="2.6939">
        <ele>140</ele>
        <time>2008-08-24T11:01:41Z</time>
      </trkpt>
      <trkpt lat="48.42507" lon="2.6941">
        <ele>139.5</ele>
        <time>2008-08-24T11:01:51Z</time>
      </trkpt>
      <trkpt lat="48.42472" lon="2.69418">
        <ele>138.7</ele>
        <time>2008-08-24T11:02:01Z</time>
      </trkpt>
      <trkpt lat="48.42433" lon="2.69392">
        <ele>137.9</ele>
        <time>2008-08-24T11:02:12Z</time>
      </trkpt>
      <trkpt lat="48.424" lon="2.69368">
        <ele>137.7</ele>
        <time>2008-08-24T11:02:22Z</time>
      </trkpt>
      <trkpt lat="48.42362" lon="2.69343">
        <ele>137.3</ele>
        <time>2008-08-24T11:02:32Z</time>
      </trkpt>
      <trkpt lat="48.4232" lon="2.69318">
        <ele>136.3</ele>
        <time>2008-08-24T11:02:42Z</time>
      </trkpt>
      <trkpt lat="48.42288" lon="2.69332">
        <ele>134</ele>
        <time>2008-08-24T11:02:53Z</time>
      </trkpt>
      <trkpt lat="48.42285" lon="2.69372">
        <ele>132.3</ele>
        <time>2008-08-24T11:03:03Z</time>
      </trkpt>
      <trkpt lat="48.42302" lon="2.69393">
        <ele>133.8</ele>
        <time>2008-08-24T11:03:13Z</time>
      </trkpt>
      <trkpt lat="48.42287" lon="2.69425">
        <ele>129.8</ele>
        <time>2008-08-24T11:03:23Z</time>
      </trkpt>
      <trkpt lat="48.42257" lon="2.69392">
        <ele>127.6</ele>
        <time>2008-08-24T11:03:34Z</time>
      </trkpt>
      <trkpt lat="48.42242" lon="2.69368">
        <ele>125.1</ele>
        <time>2008-08-24T11:03:44Z</time>
      </trkpt>
      <trkpt lat="48.42232" lon="2.69363">
        <ele>123.1</ele>
        <time>2008-08-24T11:03:54Z</time>
      </trkpt>
      <trkpt lat="48.42193" lon="2.69345">
        <ele>115.7</ele>
        <time>2008-08-24T11:04:04Z</time>
      </trkpt>
      <trkpt lat="48.42148" lon="2.6935">
        <ele>106.2</ele>
        <time>2008-08-24T11:04:15Z</time>
      </trkpt>
      <trkpt lat="48.42125" lon="2.69307">
        <ele>107</ele>
        <time>2008-08-24T11:04:25Z</time>
      </trkpt>
      <trkpt lat="48.42105" lon="2.69348">
        <ele>100.2</ele>
        <time>2008-08-24T11:04:35Z</time>
      </trkpt>
      <trkpt lat="48.42088" lon="2.69392">
        <ele>94.8</ele>
        <time>2008-08-24T11:04:45Z</time>
      </trkpt>
      <trkpt lat="48.4211" lon="2.69432">
        <ele>94.8</ele>
        <time>2008-08-24T11:04:56Z</time>
      </trkpt>
      <trkpt lat="48.42128" lon="2.69478">
        <ele>96.5</ele>
        <time>2008-08-24T11:05:06Z</time>
      </trkpt>
      <trkpt lat="48.42145" lon="2.69532">
        <ele>97.3</ele>
        <time>2008-08-24T11:05:16Z</time>
      </trkpt>
      <trkpt lat="48.42143" lon="2.69603">
        <ele>95.4</ele>
        <time>2008-08-24T11:05:26Z</time>
      </trkpt>
      <trkpt lat="48.42133" lon="2.69667">
        <ele>99.3</ele>
        <time>2008-08-24T11:05:37Z</time>
      </trkpt>
      <trkpt lat="48.4212" lon="2.6972">
        <ele>98.9</ele>
        <time>2008-08-24T11:05:47Z</time>
      </trkpt>
      <trkpt lat="48.42107" lon="2.69782">
        <ele>97.4</ele>
        <time>2008-08-24T11:05:57Z</time>
      </trkpt>
      <trkpt lat="48.42095" lon="2.69843">
        <ele>95.7</ele>
        <time>2008-08-24T11:06:07Z</time>
      </trkpt>
      <trkpt lat="48.42085" lon="2.69885">
        <ele>94.7</ele>
        <time>2008-08-24T11:06:18Z</time>
      </trkpt>
      <trkpt lat="48.42078" lon="2.6993">
        <ele>95.3</ele>
        <time>2008-08-24T11:06:28Z</time>
      </trkpt>
      <trkpt lat="48.42073" lon="2.69967">
        <ele>96.2</ele>
        <time>2008-08-24T11:06:38Z</time>
      </trkpt>
      <trkpt lat="48.42085" lon="2.6999">
        <ele>98.2</ele>
        <time>2008-08-24T11:06:48Z</time>
      </trkpt>
      <trkpt lat="48.42102" lon="2.69997">
        <ele>99.9</ele>
        <time>2008-08-24T11:06:59Z</time>
      </trkpt>
      <trkpt lat="48.42107" lon="2.70012">
        <ele>101.1</ele>
        <time>2008-08-24T11:07:09Z</time>
      </trkpt>
      <trkpt lat="48.42118" lon="2.70022">
        <ele>102.9</ele>
        <time>2008-08-24T11:07:19Z</time>
      </trkpt>
      <trkpt lat="48.4213" lon="2.70033">
        <ele>104.5</ele>
        <time>2008-08-24T11:07:30Z</time>
      </trkpt>
      <trkpt lat="48.4213" lon="2.70033">
        <ele>104.5</ele>
        <time>2008-08-24T11:07:40Z</time>
      </trkpt>
      <trkpt lat="48.42148" lon="2.70062">
        <ele>107.1</ele>
        <time>2008-08-24T11:07:50Z</time>
      </trkpt>
      <trkpt lat="48.4215" lon="2.70065">
        <ele>107.4</ele>
        <time>2008-08-24T11:08:00Z</time>
      </trkpt>
      <trkpt lat="48.4215" lon="2.70065">
        <ele>107.4</ele>
        <time>2008-08-24T11:08:10Z</time>
      </trkpt>
      <trkpt lat="48.42147" lon="2.70115">
        <ele>113.4</ele>
        <time>2008-08-24T11:08:21Z</time>
      </trkpt>
      <trkpt lat="48.42147" lon="2.70115">
        <ele>113.4</ele>
        <time>2008-08-24T11:08:31Z</time>
      </trkpt>
      <trkpt lat="48.42138" lon="2.70157">
        <ele>118.7</ele>
        <time>2008-08-24T11:08:41Z</time>
      </trkpt>
      <trkpt lat="48.4214" lon="2.70163">
        <ele>119.6</ele>
        <time>2008-08-24T11:08:51Z</time>
      </trkpt>
      <trkpt lat="48.4214" lon="2.70163">
        <ele>119.6</ele>
        <time>2008-08-24T11:09:02Z</time>
      </trkpt>
      <trkpt lat="48.4214" lon="2.70163">
        <ele>119.6</ele>
        <time>2008-08-24T11:09:12Z</time>
      </trkpt>
      <trkpt lat="48.42165" lon="2.70187">
        <ele>125</ele>
        <time>2008-08-24T11:09:22Z</time>
      </trkpt>
      <trkpt lat="48.42165" lon="2.70187">
        <ele>125</ele>
        <time>2008-08-24T11:09:32Z</time>
      </trkpt>
      <trkpt lat="48.42165" lon="2.70187">
        <ele>125</ele>
        <time>2008-08-24T11:09:43Z</time>
      </trkpt>
      <trkpt lat="48.42168" lon="2.70195">
        <ele>127</ele>
        <time>2008-08-24T11:09:53Z</time>
      </trkpt>
      <trkpt lat="48.42187" lon="2.7021">
        <ele>129.4</ele>
        <time>2008-08-24T11:10:03Z</time>
      </trkpt>
      <trkpt lat="48.42187" lon="2.7021">
        <ele>129.4</ele>
        <time>2008-08-24T11:10:13Z</time>
      </trkpt>
      <trkpt lat="48.42187" lon="2.7021">
        <ele>129.4</ele>
        <time>2008-08-24T11:10:24Z</time>
      </trkpt>
      <trkpt lat="48.42187" lon="2.7021">
        <ele>129.4</ele>
        <time>2008-08-24T11:10:34Z</time>
      </trkpt>
      <trkpt lat="48.4218" lon="2.70253">
        <ele>131.3</ele>
        <time>2008-08-24T11:10:44Z</time>
      </trkpt>
      <trkpt lat="48.42183" lon="2.70283">
        <ele>131.4</ele>
        <time>2008-08-24T11:10:54Z</time>
      </trkpt>
      <trkpt lat="48.42195" lon="2.70313">
        <ele>132.6</ele>
        <time>2008-08-24T11:11:04Z</time>
      </trkpt>
      <trkpt lat="48.42215" lon="2.70355">
        <ele>135.9</ele>
        <time>2008-08-24T11:11:15Z</time>
      </trkpt>
      <trkpt lat="48.42213" lon="2.70388">
        <ele>136</ele>
        <time>2008-08-24T11:11:25Z</time>
      </trkpt>
      <trkpt lat="48.42198" lon="2.7042">
        <ele>135.2</ele>
        <time>2008-08-24T11:11:35Z</time>
      </trkpt>
      <trkpt lat="48.42185" lon="2.70437">
        <ele>134.9</ele>
        <time>2008-08-24T11:11:45Z</time>
      </trkpt>
      <trkpt lat="48.42177" lon="2.70452">
        <ele>134.7</ele>
        <time>2008-08-24T11:11:56Z</time>
      </trkpt>
      <trkpt lat="48.42172" lon="2.70482">
        <ele>135</ele>
        <time>2008-08-24T11:12:06Z</time>
      </trkpt>
      <trkpt lat="48.42165" lon="2.70515">
        <ele>135.2</ele>
        <time>2008-08-24T11:12:16Z</time>
      </trkpt>
      <trkpt lat="48.42158" lon="2.7054">
        <ele>134.7</ele>
        <time>2008-08-24T11:12:26Z</time>
      </trkpt>
      <trkpt lat="48.42158" lon="2.7056">
        <ele>134.8</ele>
        <time>2008-08-24T11:12:37Z</time>
      </trkpt>
      <trkpt lat="48.4216" lon="2.70582">
        <ele>135.1</ele>
        <time>2008-08-24T11:12:47Z</time>
      </trkpt>
      <trkpt lat="48.42162" lon="2.70613">
        <ele>135.4</ele>
        <time>2008-08-24T11:12:57Z</time>
      </trkpt>
      <trkpt lat="48.4216" lon="2.70658">
        <ele>133.8</ele>
        <time>2008-08-24T11:13:08Z</time>
      </trkpt>
      <trkpt lat="48.42185" lon="2.70683">
        <ele>134.5</ele>
        <time>2008-08-24T11:13:18Z</time>
      </trkpt>
      <trkpt lat="48.42207" lon="2.70717">
        <ele>135.6</ele>
        <time>2008-08-24T11:13:28Z</time>
      </trkpt>
      <trkpt lat="48.4222" lon="2.7077">
        <ele>135.8</ele>
        <time>2008-08-24T11:13:38Z</time>
      </trkpt>
      <trkpt lat="48.42233" lon="2.70823">
        <ele>135.1</ele>
        <time>2008-08-24T11:13:49Z</time>
      </trkpt>
      <trkpt lat="48.4225" lon="2.7087">
        <ele>135.2</ele>
        <time>2008-08-24T11:13:59Z</time>
      </trkpt>
      <trkpt lat="48.42268" lon="2.70878">
        <ele>135.7</ele>
        <time>2008-08-24T11:14:09Z</time>
      </trkpt>
      <trkpt lat="48.42268" lon="2.70878">
        <ele>135.7</ele>
        <time>2008-08-24T11:14:19Z</time>
      </trkpt>
      <trkpt lat="48.42248" lon="2.70873">
        <ele>135.1</ele>
        <time>2008-08-24T11:14:30Z</time>
      </trkpt>
      <trkpt lat="48.42237" lon="2.70863">
        <ele>134.8</ele>
        <time>2008-08-24T11:14:40Z</time>
      </trkpt>
      <trkpt lat="48.42227" lon="2.70888">
        <ele>134.4</ele>
        <time>2008-08-24T11:14:50Z</time>
      </trkpt>
      <trkpt lat="48.42218" lon="2.70885">
        <ele>134.2</ele>
        <time>2008-08-24T11:15:00Z</time>
      </trkpt>
      <trkpt lat="48.42215" lon="2.7089">
        <ele>134.1</ele>
        <time>2008-08-24T11:15:10Z</time>
      </trkpt>
      <trkpt lat="48.42233" lon="2.7087">
        <ele>134.7</ele>
        <time>2008-08-24T11:15:21Z</time>
      </trkpt>
      <trkpt lat="48.4224" lon="2.70868">
        <ele>134.9</ele>
        <time>2008-08-24T11:15:31Z</time>
      </trkpt>
      <trkpt lat="48.42262" lon="2.70853">
        <ele>135.8</ele>
        <time>2008-08-24T11:15:41Z</time>
      </trkpt>
      <trkpt lat="48.42263" lon="2.70857">
        <ele>135.8</ele>
        <time>2008-08-24T11:15:51Z</time>
      </trkpt>
      <trkpt lat="48.42288" lon="2.70888">
        <ele>136.5</ele>
        <time>2008-08-24T11:16:02Z</time>
      </trkpt>
      <trkpt lat="48.42312" lon="2.70928">
        <ele>136.6</ele>
        <time>2008-08-24T11:16:12Z</time>
      </trkpt>
      <trkpt lat="48.42338" lon="2.70945">
        <ele>136.9</ele>
        <time>2008-08-24T11:16:22Z</time>
      </trkpt>
      <trkpt lat="48.42375" lon="2.7092">
        <ele>138.9</ele>
        <time>2008-08-24T11:16:32Z</time>
      </trkpt>
      <trkpt lat="48.4241" lon="2.70888">
        <ele>140</ele>
        <time>2008-08-24T11:16:43Z</time>
      </trkpt>
      <trkpt lat="48.42427" lon="2.70847">
        <ele>140</ele>
        <time>2008-08-24T11:16:53Z</time>
      </trkpt>
      <trkpt lat="48.42448" lon="2.70847">
        <ele>140.3</ele>
        <time>2008-08-24T11:17:03Z</time>
      </trkpt>
      <trkpt lat="48.4248" lon="2.70877">
        <ele>141</ele>
        <time>2008-08-24T11:17:13Z</time>
      </trkpt>
      <trkpt lat="48.42502" lon="2.70902">
        <ele>141</ele>
        <time>2008-08-24T11:17:24Z</time>
      </trkpt>
      <trkpt lat="48.42492" lon="2.70947">
        <ele>141</ele>
        <time>2008-08-24T11:17:34Z</time>
      </trkpt>
      <trkpt lat="48.42467" lon="2.70998">
        <ele>142.4</ele>
        <time>2008-08-24T11:17:44Z</time>
      </trkpt>
      <trkpt lat="48.42443" lon="2.71052">
        <ele>143.4</ele>
        <time>2008-08-24T11:17:54Z</time>
      </trkpt>
      <trkpt lat="48.42403" lon="2.71115">
        <ele>141.2</ele>
        <time>2008-08-24T11:18:05Z</time>
      </trkpt>
      <trkpt lat="48.42368" lon="2.71172">
        <ele>138.2</ele>
        <time>2008-08-24T11:18:15Z</time>
      </trkpt>
      <trkpt lat="48.42337" lon="2.71197">
        <ele>133</ele>
        <time>2008-08-24T11:18:25Z</time>
      </trkpt>
      <trkpt lat="48.42325" lon="2.71243">
        <ele>134</ele>
        <time>2008-08-24T11:18:35Z</time>
      </trkpt>
      <trkpt lat="48.42307" lon="2.71253">
        <ele>133.4</ele>
        <time>2008-08-24T11:18:46Z</time>
      </trkpt>
      <trkpt lat="48.42295" lon="2.71282">
        <ele>134.5</ele>
        <time>2008-08-24T11:18:56Z</time>
      </trkpt>
      <trkpt lat="48.4228" lon="2.71305">
        <ele>135.3</ele>
        <time>2008-08-24T11:19:06Z</time>
      </trkpt>
      <trkpt lat="48.42257" lon="2.71305">
        <ele>134.3</ele>
        <time>2008-08-24T11:19:16Z</time>
      </trkpt>
      <trkpt lat="48.4224" lon="2.71273">
        <ele>133.1</ele>
        <time>2008-08-24T11:19:27Z</time>
      </trkpt>
      <trkpt lat="48.42227" lon="2.7129">
        <ele>134.8</ele>
        <time>2008-08-24T11:19:37Z</time>
      </trkpt>
      <trkpt lat="48.42207" lon="2.71288">
        <ele>136</ele>
        <time>2008-08-24T11:19:47Z</time>
      </trkpt>
      <trkpt lat="48.42187" lon="2.71302">
        <ele>137.6</ele>
        <time>2008-08-24T11:19:57Z</time>
      </trkpt>
      <trkpt lat="48.42167" lon="2.71312">
        <ele>139.2</ele>
        <time>2008-08-24T11:20:08Z</time>
      </trkpt>
      <trkpt lat="48.42143" lon="2.71307">
        <ele>139.6</ele>
        <time>2008-08-24T11:20:18Z</time>
      </trkpt>
      <trkpt lat="48.42123" lon="2.713">
        <ele>139.9</ele>
        <time>2008-08-24T11:20:28Z</time>
      </trkpt>
      <trkpt lat="48.42095" lon="2.71322">
        <ele>140.1</ele>
        <time>2008-08-24T11:20:38Z</time>
      </trkpt>
      <trkpt lat="48.42085" lon="2.71362">
        <ele>141</ele>
        <time>2008-08-24T11:20:49Z</time>
      </trkpt>
      <trkpt lat="48.42078" lon="2.714">
        <ele>141.5</ele>
        <time>2008-08-24T11:20:59Z</time>
      </trkpt>
      <trkpt lat="48.42062" lon="2.71443">
        <ele>141.2</ele>
        <time>2008-08-24T11:21:09Z</time>
      </trkpt>
      <trkpt lat="48.42045" lon="2.71492">
        <ele>140.6</ele>
        <time>2008-08-24T11:21:19Z</time>
      </trkpt>
      <trkpt lat="48.42015" lon="2.71493">
        <ele>138.8</ele>
        <time>2008-08-24T11:21:30Z</time>
      </trkpt>
      <trkpt lat="48.41977" lon="2.7148">
        <ele>135.4</ele>
        <time>2008-08-24T11:21:40Z</time>
      </trkpt>
      <trkpt lat="48.41993" lon="2.71523">
        <ele>135.2</ele>
        <time>2008-08-24T11:21:50Z</time>
      </trkpt>
      <trkpt lat="48.42025" lon="2.71525">
        <ele>138.2</ele>
        <time>2008-08-24T11:22:00Z</time>
      </trkpt>
      <trkpt lat="48.42052" lon="2.71552">
        <ele>138.5</ele>
        <time>2008-08-24T11:22:11Z</time>
      </trkpt>
      <trkpt lat="48.4208" lon="2.7157">
        <ele>139.3</ele>
        <time>2008-08-24T11:22:21Z</time>
      </trkpt>
      <trkpt lat="48.42097" lon="2.71585">
        <ele>139.8</ele>
        <time>2008-08-24T11:22:31Z</time>
      </trkpt>
      <trkpt lat="48.42108" lon="2.71648">
        <ele>140.1</ele>
        <time>2008-08-24T11:22:41Z</time>
      </trkpt>
      <trkpt lat="48.42102" lon="2.71695">
        <ele>140.1</ele>
        <time>2008-08-24T11:22:52Z</time>
      </trkpt>
      <trkpt lat="48.42083" lon="2.7175">
        <ele>139.3</ele>
        <time>2008-08-24T11:23:02Z</time>
      </trkpt>
      <trkpt lat="48.42072" lon="2.71812">
        <ele>138.9</ele>
        <time>2008-08-24T11:23:12Z</time>
      </trkpt>
      <trkpt lat="48.42048" lon="2.71855">
        <ele>137.2</ele>
        <time>2008-08-24T11:23:22Z</time>
      </trkpt>
      <trkpt lat="48.42058" lon="2.71915">
        <ele>137.2</ele>
        <time>2008-08-24T11:23:33Z</time>
      </trkpt>
      <trkpt lat="48.42058" lon="2.7196">
        <ele>136.6</ele>
        <time>2008-08-24T11:23:43Z</time>
      </trkpt>
      <trkpt lat="48.42032" lon="2.71995">
        <ele>135.9</ele>
        <time>2008-08-24T11:23:53Z</time>
      </trkpt>
      <trkpt lat="48.42" lon="2.72003">
        <ele>132.5</ele>
        <time>2008-08-24T11:24:03Z</time>
      </trkpt>
      <trkpt lat="48.41945" lon="2.72035">
        <ele>125.7</ele>
        <time>2008-08-24T11:24:14Z</time>
      </trkpt>
      <trkpt lat="48.41892" lon="2.7205">
        <ele>113.9</ele>
        <time>2008-08-24T11:24:24Z</time>
      </trkpt>
      <trkpt lat="48.41853" lon="2.72075">
        <ele>109.9</ele>
        <time>2008-08-24T11:24:34Z</time>
      </trkpt>
      <trkpt lat="48.41808" lon="2.72115">
        <ele>105.4</ele>
        <time>2008-08-24T11:24:44Z</time>
      </trkpt>
      <trkpt lat="48.4175" lon="2.72137">
        <ele>97.3</ele>
        <time>2008-08-24T11:24:55Z</time>
      </trkpt>
      <trkpt lat="48.41707" lon="2.72158">
        <ele>93.8</ele>
        <time>2008-08-24T11:25:05Z</time>
      </trkpt>
      <trkpt lat="48.41692" lon="2.72222">
        <ele>90.3</ele>
        <time>2008-08-24T11:25:15Z</time>
      </trkpt>
      <trkpt lat="48.41692" lon="2.72273">
        <ele>88.4</ele>
        <time>2008-08-24T11:25:25Z</time>
      </trkpt>
      <trkpt lat="48.41713" lon="2.72352">
        <ele>89.7</ele>
        <time>2008-08-24T11:25:36Z</time>
      </trkpt>
      <trkpt lat="48.41727" lon="2.72418">
        <ele>92.3</ele>
        <time>2008-08-24T11:25:46Z</time>
      </trkpt>
      <trkpt lat="48.41722" lon="2.72485">
        <ele>92.2</ele>
        <time>2008-08-24T11:25:56Z</time>
      </trkpt>
      <trkpt lat="48.41715" lon="2.7252">
        <ele>90.4</ele>
        <time>2008-08-24T11:26:06Z</time>
      </trkpt>
      <trkpt lat="48.41717" lon="2.72568">
        <ele>88.3</ele>
        <time>2008-08-24T11:26:16Z</time>
      </trkpt>
      <trkpt lat="48.41722" lon="2.726">
        <ele>86.9</ele>
        <time>2008-08-24T11:26:27Z</time>
      </trkpt>
      <trkpt lat="48.41722" lon="2.726">
        <ele>86.9</ele>
        <time>2008-08-24T11:26:37Z</time>
      </trkpt>
      <trkpt lat="48.41722" lon="2.726">
        <ele>86.9</ele>
        <time>2008-08-24T11:26:47Z</time>
      </trkpt>
      <trkpt lat="48.41722" lon="2.726">
        <ele>86.9</ele>
        <time>2008-08-24T11:26:57Z</time>
      </trkpt>
      <trkpt lat="48.41722" lon="2.726">
        <ele>86.9</ele>
        <time>2008-08-24T11:27:08Z</time>
      </trkpt>
      <trkpt lat="48.41737" lon="2.72632">
        <ele>86</ele>
        <time>2008-08-24T11:27:18Z</time>
      </trkpt>
      <trkpt lat="48.41755" lon="2.7269">
        <ele>83.5</ele>
        <time>2008-08-24T11:27:28Z</time>
      </trkpt>
      <trkpt lat="48.41802" lon="2.72702">
        <ele>85</ele>
        <time>2008-08-24T11:27:39Z</time>
      </trkpt>
      <trkpt lat="48.41837" lon="2.7273">
        <ele>84.9</ele>
        <time>2008-08-24T11:27:49Z</time>
      </trkpt>
      <trkpt lat="48.4187" lon="2.72753">
        <ele>85.5</ele>
        <time>2008-08-24T11:27:59Z</time>
      </trkpt>
      <trkpt lat="48.4192" lon="2.72788">
        <ele>84.6</ele>
        <time>2008-08-24T11:28:09Z</time>
      </trkpt>
      <trkpt lat="48.41973" lon="2.72838">
        <ele>83.4</ele>
        <time>2008-08-24T11:28:19Z</time>
      </trkpt>
      <trkpt lat="48.42025" lon="2.72893">
        <ele>80.8</ele>
        <time>2008-08-24T11:28:30Z</time>
      </trkpt>
      <trkpt lat="48.42078" lon="2.72953">
        <ele>79.1</ele>
        <time>2008-08-24T11:28:40Z</time>
      </trkpt>
      <trkpt lat="48.42133" lon="2.73013">
        <ele>78.5</ele>
        <time>2008-08-24T11:28:50Z</time>
      </trkpt>
      <trkpt lat="48.42185" lon="2.7307">
        <ele>79.2</ele>
        <time>2008-08-24T11:29:00Z</time>
      </trkpt>
      <trkpt lat="48.42223" lon="2.73115">
        <ele>78.7</ele>
        <time>2008-08-24T11:29:11Z</time>
      </trkpt>
      <trkpt lat="48.42267" lon="2.7316">
        <ele>77.8</ele>
        <time>2008-08-24T11:29:21Z</time>
      </trkpt>
      <trkpt lat="48.42307" lon="2.73208">
        <ele>76.9</ele>
        <time>2008-08-24T11:29:31Z</time>
      </trkpt>
      <trkpt lat="48.42362" lon="2.7327">
        <ele>76.3</ele>
        <time>2008-08-24T11:29:41Z</time>
      </trkpt>
      <trkpt lat="48.42425" lon="2.73322">
        <ele>78</ele>
        <time>2008-08-24T11:29:52Z</time>
      </trkpt>
      <trkpt lat="48.42405" lon="2.7338">
        <ele>75.1</ele>
        <time>2008-08-24T11:30:02Z</time>
      </trkpt>
      <trkpt lat="48.42388" lon="2.7339">
        <ele>73.7</ele>
        <time>2008-08-24T11:30:12Z</time>
      </trkpt>
      <trkpt lat="48.4241" lon="2.73418">
        <ele>74.1</ele>
        <time>2008-08-24T11:30:22Z</time>
      </trkpt>
      <trkpt lat="48.42458" lon="2.7347">
        <ele>75.9</ele>
        <time>2008-08-24T11:30:33Z</time>
      </trkpt>
      <trkpt lat="48.42495" lon="2.7352">
        <ele>76.4</ele>
        <time>2008-08-24T11:30:43Z</time>
      </trkpt>
      <trkpt lat="48.42525" lon="2.7355">
        <ele>76.8</ele>
        <time>2008-08-24T11:30:53Z</time>
      </trkpt>
      <trkpt lat="48.42547" lon="2.7361">
        <ele>75.3</ele>
        <time>2008-08-24T11:31:03Z</time>
      </trkpt>
      <trkpt lat="48.42557" lon="2.7371">
        <ele>71</ele>
        <time>2008-08-24T11:31:14Z</time>
      </trkpt>
      <trkpt lat="48.42583" lon="2.73787">
        <ele>69.2</ele>
        <time>2008-08-24T11:31:24Z</time>
      </trkpt>
      <trkpt lat="48.42598" lon="2.73872">
        <ele>69.3</ele>
        <time>2008-08-24T11:31:34Z</time>
      </trkpt>
      <trkpt lat="48.42617" lon="2.73948">
        <ele>69.8</ele>
        <time>2008-08-24T11:31:44Z</time>
      </trkpt>
      <trkpt lat="48.42625" lon="2.74038">
        <ele>68.8</ele>
        <time>2008-08-24T11:31:55Z</time>
      </trkpt>
      <trkpt lat="48.42647" lon="2.74112">
        <ele>67</ele>
        <time>2008-08-24T11:32:05Z</time>
      </trkpt>
      <trkpt lat="48.42682" lon="2.74168">
        <ele>63</ele>
        <time>2008-08-24T11:32:15Z</time>
      </trkpt>
      <trkpt lat="48.42733" lon="2.74188">
        <ele>61.1</ele>
        <time>2008-08-24T11:32:25Z</time>
      </trkpt>
      <trkpt lat="48.4279" lon="2.74193">
        <ele>59.4</ele>
        <time>2008-08-24T11:32:35Z</time>
      </trkpt>
      <trkpt lat="48.42838" lon="2.74205">
        <ele>57.5</ele>
        <time>2008-08-24T11:32:46Z</time>
      </trkpt>
      <trkpt lat="48.42865" lon="2.74217">
        <ele>68.7148438</ele>
      </trkpt>
      <trkpt lat="48.42872" lon="2.74219">
        <ele>68.4765625</ele>
      </trkpt>
      <trkpt lat="48.4288" lon="2.74222">
        <ele>68.0039063</ele>
      </trkpt>
      <trkpt lat="48.42891" lon="2.74222">
        <ele>68.0039063</ele>
      </trkpt>
      <trkpt lat="48.429" lon="2.74222">
        <ele>68.0039063</ele>
      </trkpt>
      <trkpt lat="48.42908" lon="2.74222">
        <ele>68.0039063</ele>
      </trkpt>
      <trkpt lat="48.42918" lon="2.74222">
        <ele>68.0039063</ele>
      </trkpt>
      <trkpt lat="48.42926" lon="2.74222">
        <ele>68.0039063</ele>
      </trkpt>
      <trkpt lat="48.42935" lon="2.74223">
        <ele>67.765625</ele>
      </trkpt>
      <trkpt lat="48.42943" lon="2.74225">
        <ele>67.6875</ele>
      </trkpt>
      <trkpt lat="48.42951" lon="2.74225">
        <ele>67.9453125</ele>
      </trkpt>
      <trkpt lat="48.42959" lon="2.74225">
        <ele>68.203125</ele>
      </trkpt>
      <trkpt lat="48.42969" lon="2.74225">
        <ele>68.4101563</ele>
      </trkpt>
      <trkpt lat="48.42978" lon="2.74225">
        <ele>68.4101563</ele>
      </trkpt>
      <trkpt lat="48.42986" lon="2.74225">
        <ele>68.4101563</ele>
      </trkpt>
      <trkpt lat="48.42993" lon="2.74222">
        <ele>69.0039063</ele>
      </trkpt>
      <trkpt lat="48.43001" lon="2.7422">
        <ele>69.2421875</ele>
      </trkpt>
      <trkpt lat="48.43008" lon="2.74217">
        <ele>69.7148438</ele>
      </trkpt>
      <trkpt lat="48.43016" lon="2.74214">
        <ele>70.1875</ele>
      </trkpt>
      <trkpt lat="48.43023" lon="2.7421">
        <ele>70.6875</ele>
      </trkpt>
      <trkpt lat="48.43031" lon="2.74207">
        <ele>71.2929688</ele>
      </trkpt>
      <trkpt lat="48.43037" lon="2.74202">
        <ele>72.015625</ele>
      </trkpt>
      <trkpt lat="48.43044" lon="2.74199">
        <ele>72.4609375</ele>
      </trkpt>
      <trkpt lat="48.43051" lon="2.74195">
        <ele>72.8476563</ele>
      </trkpt>
      <trkpt lat="48.43059" lon="2.74194">
        <ele>73.0234375</ele>
      </trkpt>
      <trkpt lat="48.43067" lon="2.74197">
        <ele>72.6679688</ele>
      </trkpt>
      <trkpt lat="48.43073" lon="2.74204">
        <ele>71.9570313</ele>
      </trkpt>
      <trkpt lat="48.43078" lon="2.74209">
        <ele>71.40625</ele>
      </trkpt>
      <trkpt lat="48.43086" lon="2.74212">
        <ele>70.859375</ele>
      </trkpt>
      <trkpt lat="48.43095" lon="2.74212">
        <ele>70.640625</ele>
      </trkpt>
      <trkpt lat="48.43105" lon="2.74215">
        <ele>69.9492188</ele>
      </trkpt>
      <trkpt lat="48.4311" lon="2.7422">
        <ele>69.2265625</ele>
      </trkpt>
      <trkpt lat="48.43118" lon="2.74222">
        <ele>69.0039063</ele>
      </trkpt>
      <trkpt lat="48.43126" lon="2.74222">
        <ele>69.0039063</ele>
      </trkpt>
      <trkpt lat="48.4313" lon="2.74222">
        <ele>69.0039063</ele>
      </trkpt>
      <trkpt lat="48.43147" lon="2.74225">
        <ele>60.2</ele>
        <time>2008-08-24T08:54:52Z</time>
      </trkpt>
      <trkpt lat="48.43178" lon="2.74225">
        <ele>60.4</ele>
        <time>2008-08-24T08:55:02Z</time>
      </trkpt>
      <trkpt lat="48.4321" lon="2.74223">
        <ele>60.9</ele>
        <time>2008-08-24T08:55:12Z</time>
      </trkpt>
      <trkpt lat="48.43252" lon="2.74225">
        <ele>62.5</ele>
        <time>2008-08-24T08:55:22Z</time>
      </trkpt>
      <trkpt lat="48.43278" lon="2.74213">
        <ele>68</ele>
        <time>2008-08-24T08:55:33Z</time>
      </trkpt>
      <trkpt lat="48.43288" lon="2.7421">
        <ele>68.8</ele>
        <time>2008-08-24T08:55:43Z</time>
      </trkpt>
      <trkpt lat="48.43288" lon="2.7421">
        <ele>68.8</ele>
        <time>2008-08-24T08:55:53Z</time>
      </trkpt>
      <trkpt lat="48.43288" lon="2.7421">
        <ele>68.8</ele>
        <time>2008-08-24T08:56:04Z</time>
      </trkpt>
      <trkpt lat="48.43322" lon="2.74203">
        <ele>71.1</ele>
        <time>2008-08-24T08:56:14Z</time>
      </trkpt>
      <trkpt lat="48.43348" lon="2.74213">
        <ele>71.2</ele>
        <time>2008-08-24T08:56:24Z</time>
      </trkpt>
      <trkpt lat="48.4338" lon="2.74238">
        <ele>69</ele>
        <time>2008-08-24T08:56:34Z</time>
      </trkpt>
      <trkpt lat="48.43413" lon="2.74245">
        <ele>69.9</ele>
        <time>2008-08-24T08:56:45Z</time>
      </trkpt>
      <trkpt lat="48.43417" lon="2.7422">
        <ele>72.6</ele>
        <time>2008-08-24T08:56:55Z</time>
      </trkpt>
      <trkpt lat="48.43422" lon="2.74195">
        <ele>75.3</ele>
        <time>2008-08-24T08:57:05Z</time>
      </trkpt>
      <trkpt lat="48.43412" lon="2.74177">
        <ele>77</ele>
        <time>2008-08-24T08:57:15Z</time>
      </trkpt>
      <trkpt lat="48.43402" lon="2.74153">
        <ele>79.1</ele>
        <time>2008-08-24T08:57:26Z</time>
      </trkpt>
      <trkpt lat="48.43388" lon="2.74127">
        <ele>81.1</ele>
        <time>2008-08-24T08:57:36Z</time>
      </trkpt>
      <trkpt lat="48.43377" lon="2.741">
        <ele>83.3</ele>
        <time>2008-08-24T08:57:46Z</time>
      </trkpt>
      <trkpt lat="48.43368" lon="2.7407">
        <ele>85.1</ele>
        <time>2008-08-24T08:57:56Z</time>
      </trkpt>
      <trkpt lat="48.43377" lon="2.74035">
        <ele>85.8</ele>
        <time>2008-08-24T08:58:07Z</time>
      </trkpt>
      <trkpt lat="48.43397" lon="2.74012">
        <ele>86.6</ele>
        <time>2008-08-24T08:58:17Z</time>
      </trkpt>
      <trkpt lat="48.43417" lon="2.7399">
        <ele>87</ele>
        <time>2008-08-24T08:58:27Z</time>
      </trkpt>
      <trkpt lat="48.43438" lon="2.73948">
        <ele>87</ele>
        <time>2008-08-24T08:58:37Z</time>
      </trkpt>
      <trkpt lat="48.4345" lon="2.739">
        <ele>87.7</ele>
        <time>2008-08-24T08:58:48Z</time>
      </trkpt>
      <trkpt lat="48.43447" lon="2.73863">
        <ele>88</ele>
        <time>2008-08-24T08:58:58Z</time>
      </trkpt>
      <trkpt lat="48.43448" lon="2.73842">
        <ele>88</ele>
        <time>2008-08-24T08:59:08Z</time>
      </trkpt>
      <trkpt lat="48.43457" lon="2.73798">
        <ele>88</ele>
        <time>2008-08-24T08:59:19Z</time>
      </trkpt>
      <trkpt lat="48.43428" lon="2.73787">
        <ele>88</ele>
        <time>2008-08-24T08:59:29Z</time>
      </trkpt>
      <trkpt lat="48.43407" lon="2.73777">
        <ele>88.1</ele>
        <time>2008-08-24T08:59:39Z</time>
      </trkpt>
      <trkpt lat="48.43387" lon="2.73755">
        <ele>88.5</ele>
        <time>2008-08-24T08:59:49Z</time>
      </trkpt>
      <trkpt lat="48.4339" lon="2.73702">
        <ele>88.8</ele>
        <time>2008-08-24T09:00:00Z</time>
      </trkpt>
      <trkpt lat="48.4338" lon="2.73642">
        <ele>89.4</ele>
        <time>2008-08-24T09:00:10Z</time>
      </trkpt>
      <trkpt lat="48.43352" lon="2.736">
        <ele>90.4</ele>
        <time>2008-08-24T09:00:20Z</time>
      </trkpt>
      <trkpt lat="48.43322" lon="2.73583">
        <ele>90.7</ele>
        <time>2008-08-24T09:00:30Z</time>
      </trkpt>
      <trkpt lat="48.4329" lon="2.73572">
        <ele>90.9</ele>
        <time>2008-08-24T09:00:41Z</time>
      </trkpt>
      <trkpt lat="48.43282" lon="2.7357">
        <ele>91</ele>
        <time>2008-08-24T09:00:51Z</time>
      </trkpt>
      <trkpt lat="48.43282" lon="2.7357">
        <ele>91</ele>
        <time>2008-08-24T09:01:01Z</time>
      </trkpt>
      <trkpt lat="48.4326" lon="2.73552">
        <ele>91</ele>
        <time>2008-08-24T09:01:11Z</time>
      </trkpt>
      <trkpt lat="48.4326" lon="2.73552">
        <ele>91</ele>
        <time>2008-08-24T09:01:22Z</time>
      </trkpt>
      <trkpt lat="48.4326" lon="2.73552">
        <ele>91</ele>
        <time>2008-08-24T09:01:32Z</time>
      </trkpt>
      <trkpt lat="48.4326" lon="2.73552">
        <ele>91</ele>
        <time>2008-08-24T09:01:42Z</time>
      </trkpt>
      <trkpt lat="48.4326" lon="2.73552">
        <ele>91</ele>
        <time>2008-08-24T09:01:52Z</time>
      </trkpt>
      <trkpt lat="48.4326" lon="2.73552">
        <ele>91</ele>
        <time>2008-08-24T09:02:03Z</time>
      </trkpt>
      <trkpt lat="48.4326" lon="2.73552">
        <ele>91</ele>
        <time>2008-08-24T09:02:13Z</time>
      </trkpt>
      <trkpt lat="48.4326" lon="2.73552">
        <ele>91</ele>
        <time>2008-08-24T09:02:23Z</time>
      </trkpt>
      <trkpt lat="48.4326" lon="2.73552">
        <ele>91</ele>
        <time>2008-08-24T09:02:34Z</time>
      </trkpt>
      <trkpt lat="48.4326" lon="2.73552">
        <ele>91</ele>
        <time>2008-08-24T09:02:44Z</time>
      </trkpt>
      <trkpt lat="48.43243" lon="2.73518">
        <ele>91.6</ele>
        <time>2008-08-24T09:02:54Z</time>
      </trkpt>
      <trkpt lat="48.43257" lon="2.73493">
        <ele>92</ele>
        <time>2008-08-24T09:03:04Z</time>
      </trkpt>
      <trkpt lat="48.4326" lon="2.73448">
        <ele>93.5</ele>
        <time>2008-08-24T09:03:15Z</time>
      </trkpt>
      <trkpt lat="48.43257" lon="2.73403">
        <ele>95.6</ele>
        <time>2008-08-24T09:03:25Z</time>
      </trkpt>
      <trkpt lat="48.4325" lon="2.73372">
        <ele>97.9</ele>
        <time>2008-08-24T09:03:35Z</time>
      </trkpt>
      <trkpt lat="48.43248" lon="2.73337">
        <ele>100.2</ele>
        <time>2008-08-24T09:03:45Z</time>
      </trkpt>
      <trkpt lat="48.43247" lon="2.73308">
        <ele>101.2</ele>
        <time>2008-08-24T09:03:56Z</time>
      </trkpt>
      <trkpt lat="48.43257" lon="2.73302">
        <ele>101.9</ele>
        <time>2008-08-24T09:04:06Z</time>
      </trkpt>
      <trkpt lat="48.43273" lon="2.73298">
        <ele>102.8</ele>
        <time>2008-08-24T09:04:16Z</time>
      </trkpt>
      <trkpt lat="48.43297" lon="2.73285">
        <ele>102</ele>
        <time>2008-08-24T09:04:27Z</time>
      </trkpt>
      <trkpt lat="48.43305" lon="2.73262">
        <ele>102.4</ele>
        <time>2008-08-24T09:04:37Z</time>
      </trkpt>
      <trkpt lat="48.43308" lon="2.73228">
        <ele>104.2</ele>
        <time>2008-08-24T09:04:47Z</time>
      </trkpt>
      <trkpt lat="48.43302" lon="2.73193">
        <ele>106</ele>
        <time>2008-08-24T09:04:57Z</time>
      </trkpt>
      <trkpt lat="48.43287" lon="2.73165">
        <ele>106</ele>
        <time>2008-08-24T09:05:08Z</time>
      </trkpt>
      <trkpt lat="48.4328" lon="2.73123">
        <ele>105.8</ele>
        <time>2008-08-24T09:05:18Z</time>
      </trkpt>
      <trkpt lat="48.43287" lon="2.73085">
        <ele>106.6</ele>
        <time>2008-08-24T09:05:28Z</time>
      </trkpt>
      <trkpt lat="48.43298" lon="2.73062">
        <ele>106.8</ele>
        <time>2008-08-24T09:05:38Z</time>
      </trkpt>
      <trkpt lat="48.4331" lon="2.73037">
        <ele>107.8</ele>
        <time>2008-08-24T09:05:49Z</time>
      </trkpt>
      <trkpt lat="48.43328" lon="2.73018">
        <ele>108.8</ele>
        <time>2008-08-24T09:05:59Z</time>
      </trkpt>
      <trkpt lat="48.4334" lon="2.7298">
        <ele>109.3</ele>
        <time>2008-08-24T09:06:09Z</time>
      </trkpt>
      <trkpt lat="48.4335" lon="2.72953">
        <ele>109.8</ele>
        <time>2008-08-24T09:06:19Z</time>
      </trkpt>
      <trkpt lat="48.43353" lon="2.72923">
        <ele>111.2</ele>
        <time>2008-08-24T09:06:30Z</time>
      </trkpt>
      <trkpt lat="48.43353" lon="2.72915">
        <ele>111.5</ele>
        <time>2008-08-24T09:06:40Z</time>
      </trkpt>
      <trkpt lat="48.43353" lon="2.72915">
        <ele>111.5</ele>
        <time>2008-08-24T09:06:50Z</time>
      </trkpt>
      <trkpt lat="48.43358" lon="2.7287">
        <ele>113.4</ele>
        <time>2008-08-24T09:07:00Z</time>
      </trkpt>
      <trkpt lat="48.43363" lon="2.7285">
        <ele>113.5</ele>
        <time>2008-08-24T09:07:11Z</time>
      </trkpt>
      <trkpt lat="48.43367" lon="2.72818">
        <ele>113.1</ele>
        <time>2008-08-24T09:07:21Z</time>
      </trkpt>
      <trkpt lat="48.43368" lon="2.72817">
        <ele>113.1</ele>
        <time>2008-08-24T09:07:31Z</time>
      </trkpt>
      <trkpt lat="48.43385" lon="2.72785">
        <ele>110.8</ele>
        <time>2008-08-24T09:07:42Z</time>
      </trkpt>
      <trkpt lat="48.4342" lon="2.72792">
        <ele>105.8</ele>
        <time>2008-08-24T09:07:52Z</time>
      </trkpt>
      <trkpt lat="48.43495" lon="2.7285">
        <ele>94.5</ele>
        <time>2008-08-24T09:08:02Z</time>
      </trkpt>
      <trkpt lat="48.4356" lon="2.72907">
        <ele>89.6</ele>
        <time>2008-08-24T09:08:12Z</time>
      </trkpt>
      <trkpt lat="48.43562" lon="2.72868">
        <ele>90.3</ele>
        <time>2008-08-24T09:08:23Z</time>
      </trkpt>
      <trkpt lat="48.43563" lon="2.72845">
        <ele>91.5</ele>
        <time>2008-08-24T09:08:33Z</time>
      </trkpt>
      <trkpt lat="48.43578" lon="2.72847">
        <ele>91.9</ele>
        <time>2008-08-24T09:08:43Z</time>
      </trkpt>
      <trkpt lat="48.43603" lon="2.72857">
        <ele>93.1</ele>
        <time>2008-08-24T09:08:54Z</time>
      </trkpt>
      <trkpt lat="48.43605" lon="2.72858">
        <ele>93.3</ele>
        <time>2008-08-24T09:09:04Z</time>
      </trkpt>
      <trkpt lat="48.43605" lon="2.72858">
        <ele>93.3</ele>
        <time>2008-08-24T09:09:14Z</time>
      </trkpt>
      <trkpt lat="48.43632" lon="2.72882">
        <ele>96.9</ele>
        <time>2008-08-24T09:09:24Z</time>
      </trkpt>
      <trkpt lat="48.43632" lon="2.72882">
        <ele>96.9</ele>
        <time>2008-08-24T09:09:35Z</time>
      </trkpt>
      <trkpt lat="48.43663" lon="2.72885">
        <ele>97.7</ele>
        <time>2008-08-24T09:09:45Z</time>
      </trkpt>
      <trkpt lat="48.43677" lon="2.7286">
        <ele>98.5</ele>
        <time>2008-08-24T09:09:55Z</time>
      </trkpt>
      <trkpt lat="48.43678" lon="2.7282">
        <ele>98.3</ele>
        <time>2008-08-24T09:10:05Z</time>
      </trkpt>
      <trkpt lat="48.43683" lon="2.7279">
        <ele>98.6</ele>
        <time>2008-08-24T09:10:16Z</time>
      </trkpt>
      <trkpt lat="48.43693" lon="2.72768">
        <ele>99</ele>
        <time>2008-08-24T09:10:26Z</time>
      </trkpt>
      <trkpt lat="48.43693" lon="2.72767">
        <ele>99.1</ele>
        <time>2008-08-24T09:10:36Z</time>
      </trkpt>
      <trkpt lat="48.43693" lon="2.72767">
        <ele>99.1</ele>
        <time>2008-08-24T09:10:46Z</time>
      </trkpt>
      <trkpt lat="48.43702" lon="2.72727">
        <ele>99.9</ele>
        <time>2008-08-24T09:10:57Z</time>
      </trkpt>
      <trkpt lat="48.43702" lon="2.72727">
        <ele>99.9</ele>
        <time>2008-08-24T09:11:07Z</time>
      </trkpt>
      <trkpt lat="48.43715" lon="2.72687">
        <ele>99.7</ele>
        <time>2008-08-24T09:11:17Z</time>
      </trkpt>
      <trkpt lat="48.43715" lon="2.72658">
        <ele>101.3</ele>
        <time>2008-08-24T09:11:27Z</time>
      </trkpt>
      <trkpt lat="48.4371" lon="2.7263">
        <ele>103.7</ele>
        <time>2008-08-24T09:11:38Z</time>
      </trkpt>
      <trkpt lat="48.43712" lon="2.7263">
        <ele>103.5</ele>
        <time>2008-08-24T09:11:48Z</time>
      </trkpt>
      <trkpt lat="48.43713" lon="2.72592">
        <ele>105.4</ele>
        <time>2008-08-24T09:11:58Z</time>
      </trkpt>
      <trkpt lat="48.43723" lon="2.7257">
        <ele>104.8</ele>
        <time>2008-08-24T09:12:09Z</time>
      </trkpt>
      <trkpt lat="48.43723" lon="2.72568">
        <ele>104.8</ele>
        <time>2008-08-24T09:12:19Z</time>
      </trkpt>
      <trkpt lat="48.43742" lon="2.72543">
        <ele>103.2</ele>
        <time>2008-08-24T09:12:29Z</time>
      </trkpt>
      <trkpt lat="48.43757" lon="2.72523">
        <ele>101.1</ele>
        <time>2008-08-24T09:12:39Z</time>
      </trkpt>
      <trkpt lat="48.43763" lon="2.72492">
        <ele>100.4</ele>
        <time>2008-08-24T09:12:50Z</time>
      </trkpt>
      <trkpt lat="48.43768" lon="2.72478">
        <ele>99.9</ele>
        <time>2008-08-24T09:13:00Z</time>
      </trkpt>
      <trkpt lat="48.43767" lon="2.72455">
        <ele>100.3</ele>
        <time>2008-08-24T09:13:10Z</time>
      </trkpt>
      <trkpt lat="48.43767" lon="2.7244">
        <ele>100</ele>
        <time>2008-08-24T09:13:20Z</time>
      </trkpt>
      <trkpt lat="48.43767" lon="2.7244">
        <ele>100</ele>
        <time>2008-08-24T09:13:31Z</time>
      </trkpt>
      <trkpt lat="48.43767" lon="2.7244">
        <ele>100</ele>
        <time>2008-08-24T09:13:41Z</time>
      </trkpt>
      <trkpt lat="48.43767" lon="2.7244">
        <ele>100</ele>
        <time>2008-08-24T09:13:51Z</time>
      </trkpt>
      <trkpt lat="48.43762" lon="2.72418">
        <ele>100.1</ele>
        <time>2008-08-24T09:14:02Z</time>
      </trkpt>
      <trkpt lat="48.43742" lon="2.72385">
        <ele>101.4</ele>
        <time>2008-08-24T09:14:12Z</time>
      </trkpt>
      <trkpt lat="48.43713" lon="2.7234">
        <ele>101.2</ele>
        <time>2008-08-24T09:14:22Z</time>
      </trkpt>
      <trkpt lat="48.43667" lon="2.72298">
        <ele>96.9</ele>
        <time>2008-08-24T09:14:32Z</time>
      </trkpt>
      <trkpt lat="48.43658" lon="2.7225">
        <ele>94.8</ele>
        <time>2008-08-24T09:14:43Z</time>
      </trkpt>
      <trkpt lat="48.43665" lon="2.72182">
        <ele>94.2</ele>
        <time>2008-08-24T09:14:53Z</time>
      </trkpt>
      <trkpt lat="48.43673" lon="2.72108">
        <ele>93</ele>
        <time>2008-08-24T09:15:03Z</time>
      </trkpt>
      <trkpt lat="48.43683" lon="2.72037">
        <ele>93</ele>
        <time>2008-08-24T09:15:14Z</time>
      </trkpt>
      <trkpt lat="48.43695" lon="2.71983">
        <ele>92.9</ele>
        <time>2008-08-24T09:15:24Z</time>
      </trkpt>
      <trkpt lat="48.43707" lon="2.7192">
        <ele>93</ele>
        <time>2008-08-24T09:15:34Z</time>
      </trkpt>
      <trkpt lat="48.43722" lon="2.71837">
        <ele>93.4</ele>
        <time>2008-08-24T09:15:44Z</time>
      </trkpt>
      <trkpt lat="48.43732" lon="2.71758">
        <ele>93.2</ele>
        <time>2008-08-24T09:15:55Z</time>
      </trkpt>
      <trkpt lat="48.43742" lon="2.7169">
        <ele>92.9</ele>
        <time>2008-08-24T09:16:05Z</time>
      </trkpt>
      <trkpt lat="48.43745" lon="2.7162">
        <ele>93.4</ele>
        <time>2008-08-24T09:16:15Z</time>
      </trkpt>
      <trkpt lat="48.43752" lon="2.71557">
        <ele>93.8</ele>
        <time>2008-08-24T09:16:26Z</time>
      </trkpt>
      <trkpt lat="48.43758" lon="2.7152">
        <ele>94</ele>
        <time>2008-08-24T09:16:36Z</time>
      </trkpt>
      <trkpt lat="48.43765" lon="2.71463">
        <ele>94</ele>
        <time>2008-08-24T09:16:46Z</time>
      </trkpt>
      <trkpt lat="48.43768" lon="2.714">
        <ele>93.8</ele>
        <time>2008-08-24T09:16:56Z</time>
      </trkpt>
      <trkpt lat="48.4378" lon="2.7132">
        <ele>95.7</ele>
        <time>2008-08-24T09:17:07Z</time>
      </trkpt>
      <trkpt lat="48.43785" lon="2.71258">
        <ele>97.1</ele>
        <time>2008-08-24T09:17:17Z</time>
      </trkpt>
      <trkpt lat="48.43795" lon="2.712">
        <ele>98.2</ele>
        <time>2008-08-24T09:17:27Z</time>
      </trkpt>
      <trkpt lat="48.43795" lon="2.7115">
        <ele>98.8</ele>
        <time>2008-08-24T09:17:37Z</time>
      </trkpt>
      <trkpt lat="48.43812" lon="2.71107">
        <ele>102.2</ele>
        <time>2008-08-24T09:17:48Z</time>
      </trkpt>
      <trkpt lat="48.43818" lon="2.71067">
        <ele>103.8</ele>
        <time>2008-08-24T09:17:58Z</time>
      </trkpt>
      <trkpt lat="48.4382" lon="2.7104">
        <ele>104.4</ele>
        <time>2008-08-24T09:18:08Z</time>
      </trkpt>
      <trkpt lat="48.43833" lon="2.71048">
        <ele>105.5</ele>
        <time>2008-08-24T09:18:18Z</time>
      </trkpt>
      <trkpt lat="48.43855" lon="2.71067">
        <ele>107.7</ele>
        <time>2008-08-24T09:18:29Z</time>
      </trkpt>
      <trkpt lat="48.43872" lon="2.71095">
        <ele>108.5</ele>
        <time>2008-08-24T09:18:39Z</time>
      </trkpt>
      <trkpt lat="48.43883" lon="2.71112">
        <ele>107.8</ele>
        <time>2008-08-24T09:18:49Z</time>
      </trkpt>
      <trkpt lat="48.43895" lon="2.71118">
        <ele>107.2</ele>
        <time>2008-08-24T09:19:00Z</time>
      </trkpt>
      <trkpt lat="48.43912" lon="2.71128">
        <ele>106.4</ele>
        <time>2008-08-24T09:19:10Z</time>
      </trkpt>
      <trkpt lat="48.43928" lon="2.71135">
        <ele>104.7</ele>
        <time>2008-08-24T09:19:20Z</time>
      </trkpt>
      <trkpt lat="48.43945" lon="2.71135">
        <ele>102.7</ele>
        <time>2008-08-24T09:19:30Z</time>
      </trkpt>
      <trkpt lat="48.43978" lon="2.71157">
        <ele>97.3</ele>
        <time>2008-08-24T09:19:41Z</time>
      </trkpt>
      <trkpt lat="48.43992" lon="2.71162">
        <ele>95</ele>
        <time>2008-08-24T09:19:51Z</time>
      </trkpt>
      <trkpt lat="48.44015" lon="2.7119">
        <ele>91.2</ele>
        <time>2008-08-24T09:20:01Z</time>
      </trkpt>
      <trkpt lat="48.44047" lon="2.71202">
        <ele>89.3</ele>
        <time>2008-08-24T09:20:11Z</time>
      </trkpt>
      <trkpt lat="48.44073" lon="2.71173">
        <ele>89</ele>
        <time>2008-08-24T09:20:22Z</time>
      </trkpt>
      <trkpt lat="48.44102" lon="2.71157">
        <ele>88.6</ele>
        <time>2008-08-24T09:20:32Z</time>
      </trkpt>
      <trkpt lat="48.44137" lon="2.71132">
        <ele>88</ele>
        <time>2008-08-24T09:20:42Z</time>
      </trkpt>
      <trkpt lat="48.44172" lon="2.71103">
        <ele>87.2</ele>
        <time>2008-08-24T09:20:52Z</time>
      </trkpt>
      <trkpt lat="48.44205" lon="2.7108">
        <ele>86.3</ele>
        <time>2008-08-24T09:21:03Z</time>
      </trkpt>
      <trkpt lat="48.4424" lon="2.71052">
        <ele>86</ele>
        <time>2008-08-24T09:21:13Z</time>
      </trkpt>
      <trkpt lat="48.44282" lon="2.71023">
        <ele>86</ele>
        <time>2008-08-24T09:21:23Z</time>
      </trkpt>
      <trkpt lat="48.44322" lon="2.70998">
        <ele>85.3</ele>
        <time>2008-08-24T09:21:33Z</time>
      </trkpt>
      <trkpt lat="48.44368" lon="2.70967">
        <ele>84.8</ele>
        <time>2008-08-24T09:21:44Z</time>
      </trkpt>
      <trkpt lat="48.44407" lon="2.70938">
        <ele>84.4</ele>
        <time>2008-08-24T09:21:54Z</time>
      </trkpt>
      <trkpt lat="48.44443" lon="2.70913">
        <ele>84</ele>
        <time>2008-08-24T09:22:04Z</time>
      </trkpt>
      <trkpt lat="48.44457" lon="2.70907">
        <ele>84</ele>
        <time>2008-08-24T09:22:14Z</time>
      </trkpt>
      <trkpt lat="48.44488" lon="2.70883">
        <ele>84</ele>
        <time>2008-08-24T09:22:25Z</time>
      </trkpt>
      <trkpt lat="48.4452" lon="2.70877">
        <ele>84</ele>
        <time>2008-08-24T09:22:35Z</time>
      </trkpt>
      <trkpt lat="48.44537" lon="2.7087">
        <ele>84</ele>
        <time>2008-08-24T09:22:45Z</time>
      </trkpt>
      <trkpt lat="48.44542" lon="2.70868">
        <ele>84</ele>
        <time>2008-08-24T09:22:55Z</time>
      </trkpt>
      <trkpt lat="48.44583" lon="2.70848">
        <ele>84</ele>
        <time>2008-08-24T09:23:06Z</time>
      </trkpt>
      <trkpt lat="48.4461" lon="2.70835">
        <ele>84</ele>
        <time>2008-08-24T09:23:16Z</time>
      </trkpt>
      <trkpt lat="48.4464" lon="2.70797">
        <ele>84</ele>
        <time>2008-08-24T09:23:26Z</time>
      </trkpt>
      <trkpt lat="48.44642" lon="2.70747">
        <ele>84</ele>
        <time>2008-08-24T09:23:36Z</time>
      </trkpt>
      <trkpt lat="48.4463" lon="2.70718">
        <ele>84</ele>
        <time>2008-08-24T09:23:47Z</time>
      </trkpt>
      <trkpt lat="48.44615" lon="2.7069">
        <ele>84.2</ele>
        <time>2008-08-24T09:23:57Z</time>
      </trkpt>
      <trkpt lat="48.44575" lon="2.70678">
        <ele>84.5</ele>
        <time>2008-08-24T09:24:07Z</time>
      </trkpt>
      <trkpt lat="48.44542" lon="2.70642">
        <ele>85</ele>
        <time>2008-08-24T09:24:17Z</time>
      </trkpt>
      <trkpt lat="48.44488" lon="2.70643">
        <ele>85</ele>
        <time>2008-08-24T09:24:28Z</time>
      </trkpt>
      <trkpt lat="48.44463" lon="2.70578">
        <ele>85</ele>
        <time>2008-08-24T09:24:38Z</time>
      </trkpt>
      <trkpt lat="48.44438" lon="2.70528">
        <ele>84.7</ele>
        <time>2008-08-24T09:24:48Z</time>
      </trkpt>
      <trkpt lat="48.44397" lon="2.70477">
        <ele>84</ele>
        <time>2008-08-24T09:24:58Z</time>
      </trkpt>
      <trkpt lat="48.44362" lon="2.7043">
        <ele>84</ele>
        <time>2008-08-24T09:25:09Z</time>
      </trkpt>
      <trkpt lat="48.44335" lon="2.70355">
        <ele>84</ele>
        <time>2008-08-24T09:25:19Z</time>
      </trkpt>
      <trkpt lat="48.4431" lon="2.70293">
        <ele>84.1</ele>
        <time>2008-08-24T09:25:29Z</time>
      </trkpt>
      <trkpt lat="48.44328" lon="2.70228">
        <ele>84</ele>
        <time>2008-08-24T09:25:39Z</time>
      </trkpt>
      <trkpt lat="48.44345" lon="2.70158">
        <ele>84.2</ele>
        <time>2008-08-24T09:25:50Z</time>
      </trkpt>
      <trkpt lat="48.44357" lon="2.70093">
        <ele>85</ele>
        <time>2008-08-24T09:26:00Z</time>
      </trkpt>
      <trkpt lat="48.44362" lon="2.70013">
        <ele>85</ele>
        <time>2008-08-24T09:26:10Z</time>
      </trkpt>
      <trkpt lat="48.44343" lon="2.69938">
        <ele>84.6</ele>
        <time>2008-08-24T09:26:21Z</time>
      </trkpt>
      <trkpt lat="48.4432" lon="2.69873">
        <ele>84.1</ele>
        <time>2008-08-24T09:26:31Z</time>
      </trkpt>
      <trkpt lat="48.44302" lon="2.69813">
        <ele>84</ele>
        <time>2008-08-24T09:26:41Z</time>
      </trkpt>
      <trkpt lat="48.443" lon="2.69767">
        <ele>84</ele>
        <time>2008-08-24T09:26:51Z</time>
      </trkpt>
      <trkpt lat="48.44328" lon="2.6974">
        <ele>84</ele>
        <time>2008-08-24T09:27:02Z</time>
      </trkpt>
      <trkpt lat="48.44348" lon="2.69688">
        <ele>84</ele>
        <time>2008-08-24T09:27:12Z</time>
      </trkpt>
      <trkpt lat="48.4432" lon="2.69632">
        <ele>84</ele>
        <time>2008-08-24T09:27:22Z</time>
      </trkpt>
      <trkpt lat="48.4429" lon="2.6956">
        <ele>85</ele>
        <time>2008-08-24T09:27:32Z</time>
      </trkpt>
      <trkpt lat="48.44293" lon="2.69493">
        <ele>85</ele>
        <time>2008-08-24T09:27:43Z</time>
      </trkpt>
      <trkpt lat="48.44327" lon="2.69472">
        <ele>85</ele>
        <time>2008-08-24T09:27:53Z</time>
      </trkpt>
      <trkpt lat="48.44363" lon="2.69442">
        <ele>85</ele>
        <time>2008-08-24T09:28:03Z</time>
      </trkpt>
      <trkpt lat="48.44408" lon="2.69472">
        <ele>85</ele>
        <time>2008-08-24T09:28:13Z</time>
      </trkpt>
      <trkpt lat="48.4445" lon="2.6948">
        <ele>85</ele>
        <time>2008-08-24T09:28:24Z</time>
      </trkpt>
      <trkpt lat="48.44475" lon="2.69463">
        <ele>84.7</ele>
        <time>2008-08-24T09:28:34Z</time>
      </trkpt>
      <trkpt lat="48.4448" lon="2.69458">
        <ele>84.6</ele>
        <time>2008-08-24T09:28:44Z</time>
      </trkpt>
      <trkpt lat="48.44502" lon="2.69455">
        <ele>84.1</ele>
        <time>2008-08-24T09:28:55Z</time>
      </trkpt>
      <trkpt lat="48.44515" lon="2.69428">
        <ele>84</ele>
        <time>2008-08-24T09:29:05Z</time>
      </trkpt>
      <trkpt lat="48.44535" lon="2.69402">
        <ele>84</ele>
        <time>2008-08-24T09:29:15Z</time>
      </trkpt>
      <trkpt lat="48.44567" lon="2.6935">
        <ele>84.1</ele>
        <time>2008-08-24T09:29:25Z</time>
      </trkpt>
      <trkpt lat="48.446" lon="2.6932">
        <ele>84</ele>
        <time>2008-08-24T09:29:36Z</time>
      </trkpt>
      <trkpt lat="48.4465" lon="2.69355">
        <ele>84</ele>
        <time>2008-08-24T09:29:46Z</time>
      </trkpt>
      <trkpt lat="48.44693" lon="2.69385">
        <ele>84</ele>
        <time>2008-08-24T09:29:56Z</time>
      </trkpt>
      <trkpt lat="48.44737" lon="2.69365">
        <ele>84</ele>
        <time>2008-08-24T09:30:07Z</time>
      </trkpt>
      <trkpt lat="48.44772" lon="2.69357">
        <ele>84</ele>
        <time>2008-08-24T09:30:17Z</time>
      </trkpt>
      <trkpt lat="48.44783" lon="2.69287">
        <ele>84</ele>
        <time>2008-08-24T09:30:27Z</time>
      </trkpt>
      <trkpt lat="48.44803" lon="2.6923">
        <ele>84</ele>
        <time>2008-08-24T09:30:37Z</time>
      </trkpt>
      <trkpt lat="48.44863" lon="2.69262">
        <ele>84</ele>
        <time>2008-08-24T09:30:48Z</time>
      </trkpt>
      <trkpt lat="48.44915" lon="2.69272">
        <ele>84</ele>
        <time>2008-08-24T09:30:58Z</time>
      </trkpt>
      <trkpt lat="48.44952" lon="2.69275">
        <ele>84</ele>
        <time>2008-08-24T09:31:08Z</time>
      </trkpt>
      <trkpt lat="48.44968" lon="2.69242">
        <ele>84</ele>
        <time>2008-08-24T09:31:18Z</time>
      </trkpt>
      <trkpt lat="48.44995" lon="2.69205">
        <ele>84</ele>
        <time>2008-08-24T09:31:29Z</time>
      </trkpt>
      <trkpt lat="48.45022" lon="2.69182">
        <ele>84</ele>
        <time>2008-08-24T09:31:39Z</time>
      </trkpt>
      <trkpt lat="48.45057" lon="2.69163">
        <ele>84</ele>
        <time>2008-08-24T09:31:49Z</time>
      </trkpt>
      <trkpt lat="48.45083" lon="2.69122">
        <ele>84.6</ele>
        <time>2008-08-24T09:31:59Z</time>
      </trkpt>
      <trkpt lat="48.45093" lon="2.69062">
        <ele>85.5</ele>
        <time>2008-08-24T09:32:10Z</time>
      </trkpt>
      <trkpt lat="48.45117" lon="2.69023">
        <ele>86.6</ele>
        <time>2008-08-24T09:32:20Z</time>
      </trkpt>
      <trkpt lat="48.45137" lon="2.68998">
        <ele>88.6</ele>
        <time>2008-08-24T09:32:30Z</time>
      </trkpt>
      <trkpt lat="48.45152" lon="2.68978">
        <ele>89.6</ele>
        <time>2008-08-24T09:32:41Z</time>
      </trkpt>
      <trkpt lat="48.45152" lon="2.68978">
        <ele>89.6</ele>
        <time>2008-08-24T09:32:51Z</time>
      </trkpt>
      <trkpt lat="48.45172" lon="2.68947">
        <ele>91.1</ele>
        <time>2008-08-24T09:33:01Z</time>
      </trkpt>
      <trkpt lat="48.45197" lon="2.68923">
        <ele>92.3</ele>
        <time>2008-08-24T09:33:11Z</time>
      </trkpt>
      <trkpt lat="48.45245" lon="2.68927">
        <ele>90.9</ele>
        <time>2008-08-24T09:33:22Z</time>
      </trkpt>
      <trkpt lat="48.453" lon="2.68973">
        <ele>88.7</ele>
        <time>2008-08-24T09:33:32Z</time>
      </trkpt>
      <trkpt lat="48.45328" lon="2.6901">
        <ele>88.5</ele>
        <time>2008-08-24T09:33:42Z</time>
      </trkpt>
      <trkpt lat="48.45363" lon="2.69028">
        <ele>88</ele>
        <time>2008-08-24T09:33:52Z</time>
      </trkpt>
      <trkpt lat="48.45392" lon="2.69045">
        <ele>86.4</ele>
        <time>2008-08-24T09:34:03Z</time>
      </trkpt>
      <trkpt lat="48.4544" lon="2.69077">
        <ele>84.6</ele>
        <time>2008-08-24T09:34:13Z</time>
      </trkpt>
      <trkpt lat="48.45487" lon="2.69098">
        <ele>84</ele>
        <time>2008-08-24T09:34:23Z</time>
      </trkpt>
      <trkpt lat="48.45525" lon="2.69115">
        <ele>83.9</ele>
        <time>2008-08-24T09:34:33Z</time>
      </trkpt>
      <trkpt lat="48.45547" lon="2.69088">
        <ele>84.2</ele>
        <time>2008-08-24T09:34:44Z</time>
      </trkpt>
      <trkpt lat="48.45582" lon="2.69035">
        <ele>85.1</ele>
        <time>2008-08-24T09:34:54Z</time>
      </trkpt>
      <trkpt lat="48.45607" lon="2.69002">
        <ele>85.4</ele>
        <time>2008-08-24T09:35:04Z</time>
      </trkpt>
      <trkpt lat="48.45638" lon="2.68982">
        <ele>86.2</ele>
        <time>2008-08-24T09:35:15Z</time>
      </trkpt>
      <trkpt lat="48.45675" lon="2.68975">
        <ele>87.8</ele>
        <time>2008-08-24T09:35:25Z</time>
      </trkpt>
      <trkpt lat="48.45698" lon="2.68985">
        <ele>89.9</ele>
        <time>2008-08-24T09:35:35Z</time>
      </trkpt>
      <trkpt lat="48.4573" lon="2.69007">
        <ele>91.5</ele>
        <time>2008-08-24T09:35:45Z</time>
      </trkpt>
      <trkpt lat="48.45755" lon="2.6899">
        <ele>91.5</ele>
        <time>2008-08-24T09:35:56Z</time>
      </trkpt>
      <trkpt lat="48.4577" lon="2.6897">
        <ele>91.6</ele>
        <time>2008-08-24T09:36:06Z</time>
      </trkpt>
      <trkpt lat="48.45783" lon="2.68957">
        <ele>90.5</ele>
        <time>2008-08-24T09:36:16Z</time>
      </trkpt>
      <trkpt lat="48.45793" lon="2.6894">
        <ele>89.9</ele>
        <time>2008-08-24T09:36:26Z</time>
      </trkpt>
      <trkpt lat="48.45815" lon="2.68933">
        <ele>87.3</ele>
        <time>2008-08-24T09:36:37Z</time>
      </trkpt>
      <trkpt lat="48.4584" lon="2.68917">
        <ele>86.1</ele>
        <time>2008-08-24T09:36:47Z</time>
      </trkpt>
      <trkpt lat="48.45902" lon="2.68917">
        <ele>85</ele>
        <time>2008-08-24T09:36:57Z</time>
      </trkpt>
      <trkpt lat="48.45962" lon="2.68917">
        <ele>84</ele>
        <time>2008-08-24T09:37:07Z</time>
      </trkpt>
      <trkpt lat="48.45988" lon="2.68863">
        <ele>84</ele>
        <time>2008-08-24T09:37:18Z</time>
      </trkpt>
      <trkpt lat="48.46002" lon="2.68787">
        <ele>84</ele>
        <time>2008-08-24T09:37:28Z</time>
      </trkpt>
      <trkpt lat="48.46008" lon="2.68707">
        <ele>84</ele>
        <time>2008-08-24T09:37:38Z</time>
      </trkpt>
      <trkpt lat="48.46025" lon="2.68627">
        <ele>84</ele>
        <time>2008-08-24T09:37:48Z</time>
      </trkpt>
      <trkpt lat="48.46037" lon="2.68552">
        <ele>84</ele>
        <time>2008-08-24T09:37:59Z</time>
      </trkpt>
      <trkpt lat="48.46042" lon="2.68475">
        <ele>84</ele>
        <time>2008-08-24T09:38:09Z</time>
      </trkpt>
      <trkpt lat="48.46055" lon="2.684">
        <ele>84</ele>
        <time>2008-08-24T09:38:19Z</time>
      </trkpt>
      <trkpt lat="48.46062" lon="2.68325">
        <ele>84</ele>
        <time>2008-08-24T09:38:30Z</time>
      </trkpt>
      <trkpt lat="48.46055" lon="2.68298">
        <ele>84</ele>
        <time>2008-08-24T09:38:40Z</time>
      </trkpt>
      <trkpt lat="48.46042" lon="2.68267">
        <ele>84</ele>
        <time>2008-08-24T09:38:50Z</time>
      </trkpt>
      <trkpt lat="48.46033" lon="2.68243">
        <ele>84</ele>
        <time>2008-08-24T09:39:00Z</time>
      </trkpt>
      <trkpt lat="48.46018" lon="2.68178">
        <ele>84</ele>
        <time>2008-08-24T09:39:11Z</time>
      </trkpt>
      <trkpt lat="48.46008" lon="2.68113">
        <ele>84</ele>
        <time>2008-08-24T09:39:21Z</time>
      </trkpt>
      <trkpt lat="48.45997" lon="2.68052">
        <ele>84.5</ele>
        <time>2008-08-24T09:39:31Z</time>
      </trkpt>
      <trkpt lat="48.45985" lon="2.67992">
        <ele>85.6</ele>
        <time>2008-08-24T09:39:42Z</time>
      </trkpt>
      <trkpt lat="48.45983" lon="2.67942">
        <ele>85.8</ele>
        <time>2008-08-24T09:39:52Z</time>
      </trkpt>
      <trkpt lat="48.45973" lon="2.67877">
        <ele>86</ele>
        <time>2008-08-24T09:40:02Z</time>
      </trkpt>
      <trkpt lat="48.45945" lon="2.67835">
        <ele>86.6</ele>
        <time>2008-08-24T09:40:12Z</time>
      </trkpt>
      <trkpt lat="48.45897" lon="2.67858">
        <ele>89.1</ele>
        <time>2008-08-24T09:40:23Z</time>
      </trkpt>
      <trkpt lat="48.4588" lon="2.67832">
        <ele>87.9</ele>
        <time>2008-08-24T09:40:33Z</time>
      </trkpt>
      <trkpt lat="48.45868" lon="2.67788">
        <ele>87.7</ele>
        <time>2008-08-24T09:40:43Z</time>
      </trkpt>
      <trkpt lat="48.45855" lon="2.67763">
        <ele>88.6</ele>
        <time>2008-08-24T09:40:53Z</time>
      </trkpt>
      <trkpt lat="48.45858" lon="2.67735">
        <ele>89.6</ele>
        <time>2008-08-24T09:41:04Z</time>
      </trkpt>
      <trkpt lat="48.4588" lon="2.67705">
        <ele>89.6</ele>
        <time>2008-08-24T09:41:14Z</time>
      </trkpt>
      <trkpt lat="48.45865" lon="2.67673">
        <ele>91.6</ele>
        <time>2008-08-24T09:41:24Z</time>
      </trkpt>
      <trkpt lat="48.45862" lon="2.67625">
        <ele>90.4</ele>
        <time>2008-08-24T09:41:34Z</time>
      </trkpt>
      <trkpt lat="48.45865" lon="2.67553">
        <ele>89.1</ele>
        <time>2008-08-24T09:41:44Z</time>
      </trkpt>
      <trkpt lat="48.45878" lon="2.67507">
        <ele>88.7</ele>
        <time>2008-08-24T09:41:55Z</time>
      </trkpt>
      <trkpt lat="48.45907" lon="2.67462">
        <ele>88.2</ele>
        <time>2008-08-24T09:42:05Z</time>
      </trkpt>
      <trkpt lat="48.45945" lon="2.67417">
        <ele>88.2</ele>
        <time>2008-08-24T09:42:15Z</time>
      </trkpt>
      <trkpt lat="48.45978" lon="2.67375">
        <ele>88.5</ele>
        <time>2008-08-24T09:42:25Z</time>
      </trkpt>
      <trkpt lat="48.4598" lon="2.67348">
        <ele>88.9</ele>
        <time>2008-08-24T09:42:36Z</time>
      </trkpt>
      <trkpt lat="48.4598" lon="2.67318">
        <ele>89.5</ele>
        <time>2008-08-24T09:42:46Z</time>
      </trkpt>
      <trkpt lat="48.45992" lon="2.67302">
        <ele>89.7</ele>
        <time>2008-08-24T09:42:56Z</time>
      </trkpt>
      <trkpt lat="48.4602" lon="2.67307">
        <ele>89</ele>
        <time>2008-08-24T09:43:07Z</time>
      </trkpt>
      <trkpt lat="48.46033" lon="2.6732">
        <ele>88.5</ele>
        <time>2008-08-24T09:43:17Z</time>
      </trkpt>
      <trkpt lat="48.46047" lon="2.67335">
        <ele>87.9</ele>
        <time>2008-08-24T09:43:27Z</time>
      </trkpt>
      <trkpt lat="48.4606" lon="2.67333">
        <ele>87.4</ele>
        <time>2008-08-24T09:43:37Z</time>
      </trkpt>
      <trkpt lat="48.46065" lon="2.67337">
        <ele>87.1</ele>
        <time>2008-08-24T09:43:48Z</time>
      </trkpt>
      <trkpt lat="48.46072" lon="2.6732">
        <ele>87</ele>
        <time>2008-08-24T09:43:58Z</time>
      </trkpt>
      <trkpt lat="48.46072" lon="2.6732">
        <ele>87</ele>
        <time>2008-08-24T09:44:08Z</time>
      </trkpt>
      <trkpt lat="48.46072" lon="2.6732">
        <ele>87</ele>
        <time>2008-08-24T09:44:18Z</time>
      </trkpt>
      <trkpt lat="48.4605" lon="2.67275">
        <ele>88.7</ele>
        <time>2008-08-24T09:44:29Z</time>
      </trkpt>
      <trkpt lat="48.46035" lon="2.67263">
        <ele>89.3</ele>
        <time>2008-08-24T09:44:39Z</time>
      </trkpt>
      <trkpt lat="48.46015" lon="2.67263">
        <ele>89.8</ele>
        <time>2008-08-24T09:44:49Z</time>
      </trkpt>
      <trkpt lat="48.46" lon="2.67255">
        <ele>90.2</ele>
        <time>2008-08-24T09:44:59Z</time>
      </trkpt>
      <trkpt lat="48.45985" lon="2.67243">
        <ele>90.6</ele>
        <time>2008-08-24T09:45:09Z</time>
      </trkpt>
      <trkpt lat="48.45973" lon="2.67225">
        <ele>90.9</ele>
        <time>2008-08-24T09:45:20Z</time>
      </trkpt>
      <trkpt lat="48.45983" lon="2.67207">
        <ele>91</ele>
        <time>2008-08-24T09:45:30Z</time>
      </trkpt>
      <trkpt lat="48.45972" lon="2.67185">
        <ele>90.9</ele>
        <time>2008-08-24T09:45:40Z</time>
      </trkpt>
      <trkpt lat="48.45977" lon="2.67173">
        <ele>90.7</ele>
        <time>2008-08-24T09:45:50Z</time>
      </trkpt>
      <trkpt lat="48.45973" lon="2.67145">
        <ele>90.6</ele>
        <time>2008-08-24T09:46:01Z</time>
      </trkpt>
      <trkpt lat="48.45972" lon="2.6712">
        <ele>90.3</ele>
        <time>2008-08-24T09:46:11Z</time>
      </trkpt>
      <trkpt lat="48.45958" lon="2.67105">
        <ele>90.4</ele>
        <time>2008-08-24T09:46:21Z</time>
      </trkpt>
      <trkpt lat="48.4594" lon="2.67095">
        <ele>90.8</ele>
        <time>2008-08-24T09:46:32Z</time>
      </trkpt>
      <trkpt lat="48.45922" lon="2.67082">
        <ele>91.5</ele>
        <time>2008-08-24T09:46:42Z</time>
      </trkpt>
      <trkpt lat="48.45895" lon="2.67055">
        <ele>92.6</ele>
        <time>2008-08-24T09:46:52Z</time>
      </trkpt>
      <trkpt lat="48.45878" lon="2.67007">
        <ele>93.4</ele>
        <time>2008-08-24T09:47:02Z</time>
      </trkpt>
      <trkpt lat="48.45877" lon="2.66953">
        <ele>92.9</ele>
        <time>2008-08-24T09:47:13Z</time>
      </trkpt>
      <trkpt lat="48.45877" lon="2.66952">
        <ele>92.9</ele>
        <time>2008-08-24T09:47:23Z</time>
      </trkpt>
      <trkpt lat="48.45873" lon="2.66925">
        <ele>92.8</ele>
        <time>2008-08-24T09:47:33Z</time>
      </trkpt>
      <trkpt lat="48.45882" lon="2.66888">
        <ele>92.3</ele>
        <time>2008-08-24T09:47:43Z</time>
      </trkpt>
      <trkpt lat="48.45883" lon="2.66843">
        <ele>92.7</ele>
        <time>2008-08-24T09:47:53Z</time>
      </trkpt>
      <trkpt lat="48.45892" lon="2.66812">
        <ele>93</ele>
        <time>2008-08-24T09:48:04Z</time>
      </trkpt>
      <trkpt lat="48.45915" lon="2.66778">
        <ele>92</ele>
        <time>2008-08-24T09:48:14Z</time>
      </trkpt>
      <trkpt lat="48.45922" lon="2.6673">
        <ele>92.2</ele>
        <time>2008-08-24T09:48:24Z</time>
      </trkpt>
      <trkpt lat="48.45925" lon="2.66678">
        <ele>92.8</ele>
        <time>2008-08-24T09:48:34Z</time>
      </trkpt>
      <trkpt lat="48.45927" lon="2.66645">
        <ele>93.2</ele>
        <time>2008-08-24T09:48:45Z</time>
      </trkpt>
      <trkpt lat="48.4594" lon="2.66612">
        <ele>92.8</ele>
        <time>2008-08-24T09:48:55Z</time>
      </trkpt>
      <trkpt lat="48.45937" lon="2.66582">
        <ele>93.5</ele>
        <time>2008-08-24T09:49:05Z</time>
      </trkpt>
      <trkpt lat="48.45942" lon="2.66528">
        <ele>93.9</ele>
        <time>2008-08-24T09:49:15Z</time>
      </trkpt>
      <trkpt lat="48.45955" lon="2.66467">
        <ele>92.1</ele>
        <time>2008-08-24T09:49:26Z</time>
      </trkpt>
      <trkpt lat="48.4599" lon="2.66438">
        <ele>90.4</ele>
        <time>2008-08-24T09:49:36Z</time>
      </trkpt>
      <trkpt lat="48.4603" lon="2.6645">
        <ele>90.1</ele>
        <time>2008-08-24T09:49:46Z</time>
      </trkpt>
      <trkpt lat="48.46053" lon="2.66473">
        <ele>88.8</ele>
        <time>2008-08-24T09:49:56Z</time>
      </trkpt>
      <trkpt lat="48.46082" lon="2.66503">
        <ele>87.9</ele>
        <time>2008-08-24T09:50:07Z</time>
      </trkpt>
      <trkpt lat="48.46102" lon="2.66503">
        <ele>87.7</ele>
        <time>2008-08-24T09:50:17Z</time>
      </trkpt>
      <trkpt lat="48.46117" lon="2.66493">
        <ele>87.8</ele>
        <time>2008-08-24T09:50:27Z</time>
      </trkpt>
      <trkpt lat="48.46133" lon="2.6647">
        <ele>87.9</ele>
        <time>2008-08-24T09:50:37Z</time>
      </trkpt>
      <trkpt lat="48.46148" lon="2.66468">
        <ele>88.2</ele>
        <time>2008-08-24T09:50:48Z</time>
      </trkpt>
      <trkpt lat="48.46168" lon="2.66492">
        <ele>87.7</ele>
        <time>2008-08-24T09:50:58Z</time>
      </trkpt>
      <trkpt lat="48.46188" lon="2.66505">
        <ele>87</ele>
        <time>2008-08-24T09:51:08Z</time>
      </trkpt>
      <trkpt lat="48.4622" lon="2.6653">
        <ele>85.2</ele>
        <time>2008-08-24T09:51:18Z</time>
      </trkpt>
      <trkpt lat="48.46247" lon="2.66562">
        <ele>84.3</ele>
        <time>2008-08-24T09:51:29Z</time>
      </trkpt>
      <trkpt lat="48.46283" lon="2.66567">
        <ele>83.7</ele>
        <time>2008-08-24T09:51:39Z</time>
      </trkpt>
    </trkseg>
  </trk>
</gpx>